<?xml version="1.0" encoding="UTF-8" standalone="no" ?>
<gpx xmlns="http://www.topografix.com/GPX/1/1" xmlns:xsi="http://www.w3.org/2001/XMLSchema-instance" xsi:schemaLocation="http://www.topografix.com/GPX/1/1 http://www.topografix.com/GPX/1/1/gpx.xsd" version="1.1" creator="VisuGPX - https://www.visugpx.com">
  <metadata>
    <name>Nez de Boeuf_15 km_2024</name>
  </metadata>
  <trk>
    <name><![CDATA[2024-05-05 10:17:20]]></name>
    <trkseg>
      <trkpt lat="48.38276" lon="2.37853">
        <ele>63.1</ele>
        <time>2024-05-05T07:14:05Z</time>
      </trkpt>
      <trkpt lat="48.38275" lon="2.37853">
        <ele>63.1</ele>
        <time>2024-05-05T07:14:38Z</time>
      </trkpt>
      <trkpt lat="48.38274" lon="2.37852">
        <ele>62.62</ele>
        <time>2024-05-05T07:14:54Z</time>
      </trkpt>
      <trkpt lat="48.38274" lon="2.37852">
        <ele>62.62</ele>
        <time>2024-05-05T07:15:12Z</time>
      </trkpt>
      <trkpt lat="48.38278" lon="2.37852">
        <ele>62.62</ele>
        <time>2024-05-05T07:15:21Z</time>
      </trkpt>
      <trkpt lat="48.38309" lon="2.37858">
        <ele>62.62</ele>
        <time>2024-05-05T07:15:35Z</time>
      </trkpt>
      <trkpt lat="48.38353" lon="2.37866">
        <ele>62.62</ele>
        <time>2024-05-05T07:15:48Z</time>
      </trkpt>
      <trkpt lat="48.38406" lon="2.37878">
        <ele>62.62</ele>
        <time>2024-05-05T07:16:01Z</time>
      </trkpt>
      <trkpt lat="48.38424" lon="2.3788">
        <ele>62.62</ele>
        <time>2024-05-05T07:16:05Z</time>
      </trkpt>
      <trkpt lat="48.38489" lon="2.37879">
        <ele>64.07</ele>
        <time>2024-05-05T07:16:20Z</time>
      </trkpt>
      <trkpt lat="48.38516" lon="2.37878">
        <ele>64.07</ele>
        <time>2024-05-05T07:16:31Z</time>
      </trkpt>
      <trkpt lat="48.38569" lon="2.37881">
        <ele>65.03</ele>
        <time>2024-05-05T07:16:46Z</time>
      </trkpt>
      <trkpt lat="48.38648" lon="2.3788">
        <ele>65.03</ele>
        <time>2024-05-05T07:17:01Z</time>
      </trkpt>
      <trkpt lat="48.38737" lon="2.37861">
        <ele>63.1</ele>
        <time>2024-05-05T07:17:15Z</time>
      </trkpt>
      <trkpt lat="48.38781" lon="2.37854">
        <ele>63.1</ele>
        <time>2024-05-05T07:17:22Z</time>
      </trkpt>
      <trkpt lat="48.38786" lon="2.37854">
        <ele>63.1</ele>
        <time>2024-05-05T07:17:23Z</time>
      </trkpt>
      <trkpt lat="48.38792" lon="2.37855">
        <ele>63.1</ele>
        <time>2024-05-05T07:17:24Z</time>
      </trkpt>
      <trkpt lat="48.38854" lon="2.37871">
        <ele>63.1</ele>
        <time>2024-05-05T07:17:35Z</time>
      </trkpt>
      <trkpt lat="48.38859" lon="2.37874">
        <ele>63.1</ele>
        <time>2024-05-05T07:17:36Z</time>
      </trkpt>
      <trkpt lat="48.38864" lon="2.37879">
        <ele>63.1</ele>
        <time>2024-05-05T07:17:37Z</time>
      </trkpt>
      <trkpt lat="48.38931" lon="2.37954">
        <ele>63.1</ele>
        <time>2024-05-05T07:17:51Z</time>
      </trkpt>
      <trkpt lat="48.38942" lon="2.37958">
        <ele>63.1</ele>
        <time>2024-05-05T07:17:53Z</time>
      </trkpt>
      <trkpt lat="48.3897" lon="2.37964">
        <ele>63.1</ele>
        <time>2024-05-05T07:17:58Z</time>
      </trkpt>
      <trkpt lat="48.39009" lon="2.37951">
        <ele>63.1</ele>
        <time>2024-05-05T07:18:06Z</time>
      </trkpt>
      <trkpt lat="48.39081" lon="2.37894">
        <ele>66.47</ele>
        <time>2024-05-05T07:18:23Z</time>
      </trkpt>
      <trkpt lat="48.39093" lon="2.37883">
        <ele>66.47</ele>
        <time>2024-05-05T07:18:26Z</time>
      </trkpt>
      <trkpt lat="48.39107" lon="2.37865">
        <ele>66.95</ele>
        <time>2024-05-05T07:18:30Z</time>
      </trkpt>
      <trkpt lat="48.39109" lon="2.3786">
        <ele>66.95</ele>
        <time>2024-05-05T07:18:31Z</time>
      </trkpt>
      <trkpt lat="48.39112" lon="2.37854">
        <ele>66.95</ele>
        <time>2024-05-05T07:18:32Z</time>
      </trkpt>
      <trkpt lat="48.39114" lon="2.37847">
        <ele>66.95</ele>
        <time>2024-05-05T07:18:33Z</time>
      </trkpt>
      <trkpt lat="48.39116" lon="2.3784">
        <ele>66.95</ele>
        <time>2024-05-05T07:18:34Z</time>
      </trkpt>
      <trkpt lat="48.39117" lon="2.37833">
        <ele>66.95</ele>
        <time>2024-05-05T07:18:35Z</time>
      </trkpt>
      <trkpt lat="48.39117" lon="2.37828">
        <ele>66.95</ele>
        <time>2024-05-05T07:18:36Z</time>
      </trkpt>
      <trkpt lat="48.39118" lon="2.3782">
        <ele>66.95</ele>
        <time>2024-05-05T07:18:37Z</time>
      </trkpt>
      <trkpt lat="48.3913" lon="2.37738">
        <ele>65.51</ele>
        <time>2024-05-05T07:18:48Z</time>
      </trkpt>
      <trkpt lat="48.39132" lon="2.37732">
        <ele>65.51</ele>
        <time>2024-05-05T07:18:49Z</time>
      </trkpt>
      <trkpt lat="48.39136" lon="2.37726">
        <ele>65.51</ele>
        <time>2024-05-05T07:18:50Z</time>
      </trkpt>
      <trkpt lat="48.3914" lon="2.37721">
        <ele>65.03</ele>
        <time>2024-05-05T07:18:51Z</time>
      </trkpt>
      <trkpt lat="48.39144" lon="2.37718">
        <ele>65.51</ele>
        <time>2024-05-05T07:18:52Z</time>
      </trkpt>
      <trkpt lat="48.39149" lon="2.37715">
        <ele>65.03</ele>
        <time>2024-05-05T07:18:53Z</time>
      </trkpt>
      <trkpt lat="48.39154" lon="2.37714">
        <ele>65.03</ele>
        <time>2024-05-05T07:18:54Z</time>
      </trkpt>
      <trkpt lat="48.3916" lon="2.37713">
        <ele>65.03</ele>
        <time>2024-05-05T07:18:55Z</time>
      </trkpt>
      <trkpt lat="48.39164" lon="2.37713">
        <ele>65.03</ele>
        <time>2024-05-05T07:18:56Z</time>
      </trkpt>
      <trkpt lat="48.39222" lon="2.37707">
        <ele>65.51</ele>
        <time>2024-05-05T07:19:07Z</time>
      </trkpt>
      <trkpt lat="48.39227" lon="2.37705">
        <ele>65.51</ele>
        <time>2024-05-05T07:19:08Z</time>
      </trkpt>
      <trkpt lat="48.39241" lon="2.37698">
        <ele>65.51</ele>
        <time>2024-05-05T07:19:11Z</time>
      </trkpt>
      <trkpt lat="48.39246" lon="2.37698">
        <ele>65.51</ele>
        <time>2024-05-05T07:19:12Z</time>
      </trkpt>
      <trkpt lat="48.39251" lon="2.377">
        <ele>65.51</ele>
        <time>2024-05-05T07:19:13Z</time>
      </trkpt>
      <trkpt lat="48.39254" lon="2.37703">
        <ele>65.51</ele>
        <time>2024-05-05T07:19:14Z</time>
      </trkpt>
      <trkpt lat="48.39259" lon="2.37707">
        <ele>65.51</ele>
        <time>2024-05-05T07:19:15Z</time>
      </trkpt>
      <trkpt lat="48.39262" lon="2.3771">
        <ele>65.51</ele>
        <time>2024-05-05T07:19:16Z</time>
      </trkpt>
      <trkpt lat="48.39275" lon="2.3772">
        <ele>65.51</ele>
        <time>2024-05-05T07:19:19Z</time>
      </trkpt>
      <trkpt lat="48.39279" lon="2.37722">
        <ele>65.51</ele>
        <time>2024-05-05T07:19:20Z</time>
      </trkpt>
      <trkpt lat="48.39303" lon="2.37731">
        <ele>65.51</ele>
        <time>2024-05-05T07:19:25Z</time>
      </trkpt>
      <trkpt lat="48.39309" lon="2.37734">
        <ele>65.51</ele>
        <time>2024-05-05T07:19:26Z</time>
      </trkpt>
      <trkpt lat="48.39381" lon="2.37783">
        <ele>66.47</ele>
        <time>2024-05-05T07:19:42Z</time>
      </trkpt>
      <trkpt lat="48.39408" lon="2.37803">
        <ele>66.47</ele>
        <time>2024-05-05T07:19:52Z</time>
      </trkpt>
      <trkpt lat="48.39431" lon="2.37811">
        <ele>66.47</ele>
        <time>2024-05-05T07:20:00Z</time>
      </trkpt>
      <trkpt lat="48.39445" lon="2.3781">
        <ele>66.47</ele>
        <time>2024-05-05T07:20:03Z</time>
      </trkpt>
      <trkpt lat="48.39484" lon="2.37827">
        <ele>65.03</ele>
        <time>2024-05-05T07:20:14Z</time>
      </trkpt>
      <trkpt lat="48.39547" lon="2.37898">
        <ele>65.03</ele>
        <time>2024-05-05T07:20:29Z</time>
      </trkpt>
      <trkpt lat="48.39628" lon="2.37962">
        <ele>65.03</ele>
        <time>2024-05-05T07:20:44Z</time>
      </trkpt>
      <trkpt lat="48.3972" lon="2.38037">
        <ele>64.55</ele>
        <time>2024-05-05T07:21:01Z</time>
      </trkpt>
      <trkpt lat="48.39777" lon="2.38097">
        <ele>64.55</ele>
        <time>2024-05-05T07:21:16Z</time>
      </trkpt>
      <trkpt lat="48.39787" lon="2.38108">
        <ele>64.55</ele>
        <time>2024-05-05T07:21:19Z</time>
      </trkpt>
      <trkpt lat="48.39791" lon="2.3811">
        <ele>64.55</ele>
        <time>2024-05-05T07:21:20Z</time>
      </trkpt>
      <trkpt lat="48.39796" lon="2.38112">
        <ele>64.55</ele>
        <time>2024-05-05T07:21:21Z</time>
      </trkpt>
      <trkpt lat="48.398" lon="2.38113">
        <ele>64.55</ele>
        <time>2024-05-05T07:21:22Z</time>
      </trkpt>
      <trkpt lat="48.39804" lon="2.38114">
        <ele>64.55</ele>
        <time>2024-05-05T07:21:23Z</time>
      </trkpt>
      <trkpt lat="48.39809" lon="2.38114">
        <ele>64.55</ele>
        <time>2024-05-05T07:21:24Z</time>
      </trkpt>
      <trkpt lat="48.39813" lon="2.38114">
        <ele>64.55</ele>
        <time>2024-05-05T07:21:25Z</time>
      </trkpt>
      <trkpt lat="48.3988" lon="2.38098">
        <ele>65.51</ele>
        <time>2024-05-05T07:21:40Z</time>
      </trkpt>
      <trkpt lat="48.39955" lon="2.38092">
        <ele>65.51</ele>
        <time>2024-05-05T07:21:57Z</time>
      </trkpt>
      <trkpt lat="48.40032" lon="2.38105">
        <ele>63.1</ele>
        <time>2024-05-05T07:22:12Z</time>
      </trkpt>
      <trkpt lat="48.40134" lon="2.38126">
        <ele>62.62</ele>
        <time>2024-05-05T07:22:33Z</time>
      </trkpt>
      <trkpt lat="48.40229" lon="2.38143">
        <ele>62.62</ele>
        <time>2024-05-05T07:22:53Z</time>
      </trkpt>
      <trkpt lat="48.40238" lon="2.38144">
        <ele>62.62</ele>
        <time>2024-05-05T07:22:55Z</time>
      </trkpt>
      <trkpt lat="48.40248" lon="2.38143">
        <ele>62.62</ele>
        <time>2024-05-05T07:22:57Z</time>
      </trkpt>
      <trkpt lat="48.40252" lon="2.38142">
        <ele>62.62</ele>
        <time>2024-05-05T07:22:58Z</time>
      </trkpt>
      <trkpt lat="48.40319" lon="2.38121">
        <ele>62.62</ele>
        <time>2024-05-05T07:23:12Z</time>
      </trkpt>
      <trkpt lat="48.40334" lon="2.38122">
        <ele>62.14</ele>
        <time>2024-05-05T07:23:15Z</time>
      </trkpt>
      <trkpt lat="48.40339" lon="2.38122">
        <ele>62.14</ele>
        <time>2024-05-05T07:23:16Z</time>
      </trkpt>
      <trkpt lat="48.40355" lon="2.38119">
        <ele>62.14</ele>
        <time>2024-05-05T07:23:19Z</time>
      </trkpt>
      <trkpt lat="48.40439" lon="2.38133">
        <ele>62.14</ele>
        <time>2024-05-05T07:23:36Z</time>
      </trkpt>
      <trkpt lat="48.40498" lon="2.38153">
        <ele>62.14</ele>
        <time>2024-05-05T07:23:49Z</time>
      </trkpt>
      <trkpt lat="48.405" lon="2.38158">
        <ele>62.14</ele>
        <time>2024-05-05T07:23:50Z</time>
      </trkpt>
      <trkpt lat="48.40501" lon="2.38164">
        <ele>62.14</ele>
        <time>2024-05-05T07:23:51Z</time>
      </trkpt>
      <trkpt lat="48.40501" lon="2.38171">
        <ele>62.14</ele>
        <time>2024-05-05T07:23:52Z</time>
      </trkpt>
      <trkpt lat="48.405" lon="2.38178">
        <ele>62.14</ele>
        <time>2024-05-05T07:23:53Z</time>
      </trkpt>
      <trkpt lat="48.40499" lon="2.38186">
        <ele>62.14</ele>
        <time>2024-05-05T07:23:54Z</time>
      </trkpt>
      <trkpt lat="48.40485" lon="2.38258">
        <ele>61.18</ele>
        <time>2024-05-05T07:24:04Z</time>
      </trkpt>
      <trkpt lat="48.40486" lon="2.38264">
        <ele>61.18</ele>
        <time>2024-05-05T07:24:05Z</time>
      </trkpt>
      <trkpt lat="48.40489" lon="2.3827">
        <ele>61.18</ele>
        <time>2024-05-05T07:24:06Z</time>
      </trkpt>
      <trkpt lat="48.40491" lon="2.38272">
        <ele>61.18</ele>
        <time>2024-05-05T07:24:07Z</time>
      </trkpt>
      <trkpt lat="48.40495" lon="2.38275">
        <ele>61.18</ele>
        <time>2024-05-05T07:24:08Z</time>
      </trkpt>
      <trkpt lat="48.40498" lon="2.38277">
        <ele>61.18</ele>
        <time>2024-05-05T07:24:09Z</time>
      </trkpt>
      <trkpt lat="48.40521" lon="2.38287">
        <ele>61.18</ele>
        <time>2024-05-05T07:24:14Z</time>
      </trkpt>
      <trkpt lat="48.40544" lon="2.38288">
        <ele>62.14</ele>
        <time>2024-05-05T07:24:19Z</time>
      </trkpt>
      <trkpt lat="48.40549" lon="2.38288">
        <ele>62.14</ele>
        <time>2024-05-05T07:24:20Z</time>
      </trkpt>
      <trkpt lat="48.40637" lon="2.38291">
        <ele>62.14</ele>
        <time>2024-05-05T07:24:38Z</time>
      </trkpt>
      <trkpt lat="48.40646" lon="2.38289">
        <ele>62.14</ele>
        <time>2024-05-05T07:24:41Z</time>
      </trkpt>
      <trkpt lat="48.40648" lon="2.38285">
        <ele>62.14</ele>
        <time>2024-05-05T07:24:42Z</time>
      </trkpt>
      <trkpt lat="48.40649" lon="2.38281">
        <ele>62.14</ele>
        <time>2024-05-05T07:24:43Z</time>
      </trkpt>
      <trkpt lat="48.40649" lon="2.38277">
        <ele>62.14</ele>
        <time>2024-05-05T07:24:44Z</time>
      </trkpt>
      <trkpt lat="48.40649" lon="2.38272">
        <ele>62.14</ele>
        <time>2024-05-05T07:24:45Z</time>
      </trkpt>
      <trkpt lat="48.40647" lon="2.38227">
        <ele>62.14</ele>
        <time>2024-05-05T07:24:53Z</time>
      </trkpt>
      <trkpt lat="48.40649" lon="2.38223">
        <ele>62.14</ele>
        <time>2024-05-05T07:24:54Z</time>
      </trkpt>
      <trkpt lat="48.40652" lon="2.3822">
        <ele>62.14</ele>
        <time>2024-05-05T07:24:55Z</time>
      </trkpt>
      <trkpt lat="48.40656" lon="2.38219">
        <ele>62.14</ele>
        <time>2024-05-05T07:24:56Z</time>
      </trkpt>
      <trkpt lat="48.40659" lon="2.38218">
        <ele>62.14</ele>
        <time>2024-05-05T07:24:57Z</time>
      </trkpt>
      <trkpt lat="48.40669" lon="2.38217">
        <ele>62.14</ele>
        <time>2024-05-05T07:24:59Z</time>
      </trkpt>
      <trkpt lat="48.40673" lon="2.38216">
        <ele>62.14</ele>
        <time>2024-05-05T07:25:00Z</time>
      </trkpt>
      <trkpt lat="48.40686" lon="2.38213">
        <ele>62.62</ele>
        <time>2024-05-05T07:25:03Z</time>
      </trkpt>
      <trkpt lat="48.4074" lon="2.3821">
        <ele>63.1</ele>
        <time>2024-05-05T07:25:18Z</time>
      </trkpt>
      <trkpt lat="48.40788" lon="2.38226">
        <ele>63.1</ele>
        <time>2024-05-05T07:25:33Z</time>
      </trkpt>
      <trkpt lat="48.40851" lon="2.38235">
        <ele>62.62</ele>
        <time>2024-05-05T07:25:49Z</time>
      </trkpt>
      <trkpt lat="48.40913" lon="2.3823">
        <ele>62.62</ele>
        <time>2024-05-05T07:26:04Z</time>
      </trkpt>
      <trkpt lat="48.40985" lon="2.38207">
        <ele>62.62</ele>
        <time>2024-05-05T07:26:22Z</time>
      </trkpt>
      <trkpt lat="48.41037" lon="2.38167">
        <ele>64.07</ele>
        <time>2024-05-05T07:26:38Z</time>
      </trkpt>
      <trkpt lat="48.41096" lon="2.38121">
        <ele>65.03</ele>
        <time>2024-05-05T07:26:57Z</time>
      </trkpt>
      <trkpt lat="48.41147" lon="2.38121">
        <ele>65.03</ele>
        <time>2024-05-05T07:27:11Z</time>
      </trkpt>
      <trkpt lat="48.41149" lon="2.38122">
        <ele>65.03</ele>
        <time>2024-05-05T07:27:12Z</time>
      </trkpt>
      <trkpt lat="48.41151" lon="2.38123">
        <ele>65.03</ele>
        <time>2024-05-05T07:27:13Z</time>
      </trkpt>
      <trkpt lat="48.41153" lon="2.38125">
        <ele>65.03</ele>
        <time>2024-05-05T07:27:14Z</time>
      </trkpt>
      <trkpt lat="48.41155" lon="2.38129">
        <ele>65.03</ele>
        <time>2024-05-05T07:27:16Z</time>
      </trkpt>
      <trkpt lat="48.41155" lon="2.38132">
        <ele>65.03</ele>
        <time>2024-05-05T07:27:17Z</time>
      </trkpt>
      <trkpt lat="48.41155" lon="2.38136">
        <ele>65.03</ele>
        <time>2024-05-05T07:27:18Z</time>
      </trkpt>
      <trkpt lat="48.41155" lon="2.3814">
        <ele>63.58</ele>
        <time>2024-05-05T07:27:19Z</time>
      </trkpt>
      <trkpt lat="48.41156" lon="2.38144">
        <ele>63.58</ele>
        <time>2024-05-05T07:27:20Z</time>
      </trkpt>
      <trkpt lat="48.41157" lon="2.38149">
        <ele>63.1</ele>
        <time>2024-05-05T07:27:21Z</time>
      </trkpt>
      <trkpt lat="48.41158" lon="2.38154">
        <ele>63.1</ele>
        <time>2024-05-05T07:27:22Z</time>
      </trkpt>
      <trkpt lat="48.41176" lon="2.38251">
        <ele>61.66</ele>
        <time>2024-05-05T07:27:38Z</time>
      </trkpt>
      <trkpt lat="48.41197" lon="2.38356">
        <ele>59.74</ele>
        <time>2024-05-05T07:27:53Z</time>
      </trkpt>
      <trkpt lat="48.41216" lon="2.3846">
        <ele>57.82</ele>
        <time>2024-05-05T07:28:09Z</time>
      </trkpt>
      <trkpt lat="48.41222" lon="2.38481">
        <ele>57.34</ele>
        <time>2024-05-05T07:28:13Z</time>
      </trkpt>
      <trkpt lat="48.41224" lon="2.38481">
        <ele>57.34</ele>
        <time>2024-05-05T07:28:14Z</time>
      </trkpt>
      <trkpt lat="48.41252" lon="2.38467">
        <ele>57.34</ele>
        <time>2024-05-05T07:28:27Z</time>
      </trkpt>
      <trkpt lat="48.41297" lon="2.38443">
        <ele>57.34</ele>
        <time>2024-05-05T07:28:44Z</time>
      </trkpt>
      <trkpt lat="48.41348" lon="2.38418">
        <ele>57.34</ele>
        <time>2024-05-05T07:29:00Z</time>
      </trkpt>
      <trkpt lat="48.41398" lon="2.38397">
        <ele>57.34</ele>
        <time>2024-05-05T07:29:16Z</time>
      </trkpt>
      <trkpt lat="48.41449" lon="2.38374">
        <ele>58.3</ele>
        <time>2024-05-05T07:29:31Z</time>
      </trkpt>
      <trkpt lat="48.41523" lon="2.38337">
        <ele>58.78</ele>
        <time>2024-05-05T07:29:51Z</time>
      </trkpt>
      <trkpt lat="48.41527" lon="2.38335">
        <ele>58.78</ele>
        <time>2024-05-05T07:29:52Z</time>
      </trkpt>
      <trkpt lat="48.41587" lon="2.38311">
        <ele>58.78</ele>
        <time>2024-05-05T07:30:07Z</time>
      </trkpt>
      <trkpt lat="48.41654" lon="2.38276">
        <ele>58.78</ele>
        <time>2024-05-05T07:30:23Z</time>
      </trkpt>
      <trkpt lat="48.41713" lon="2.38249">
        <ele>57.34</ele>
        <time>2024-05-05T07:30:38Z</time>
      </trkpt>
      <trkpt lat="48.41779" lon="2.38224">
        <ele>57.34</ele>
        <time>2024-05-05T07:30:55Z</time>
      </trkpt>
      <trkpt lat="48.41787" lon="2.3822">
        <ele>57.34</ele>
        <time>2024-05-05T07:30:57Z</time>
      </trkpt>
      <trkpt lat="48.41791" lon="2.38219">
        <ele>57.34</ele>
        <time>2024-05-05T07:30:58Z</time>
      </trkpt>
      <trkpt lat="48.41795" lon="2.38217">
        <ele>57.34</ele>
        <time>2024-05-05T07:30:59Z</time>
      </trkpt>
      <trkpt lat="48.41815" lon="2.38213">
        <ele>57.34</ele>
        <time>2024-05-05T07:31:04Z</time>
      </trkpt>
      <trkpt lat="48.41819" lon="2.38214">
        <ele>57.34</ele>
        <time>2024-05-05T07:31:05Z</time>
      </trkpt>
      <trkpt lat="48.41823" lon="2.38215">
        <ele>57.34</ele>
        <time>2024-05-05T07:31:06Z</time>
      </trkpt>
      <trkpt lat="48.41828" lon="2.38217">
        <ele>57.34</ele>
        <time>2024-05-05T07:31:07Z</time>
      </trkpt>
      <trkpt lat="48.41832" lon="2.3822">
        <ele>57.34</ele>
        <time>2024-05-05T07:31:08Z</time>
      </trkpt>
      <trkpt lat="48.41835" lon="2.38224">
        <ele>57.34</ele>
        <time>2024-05-05T07:31:09Z</time>
      </trkpt>
      <trkpt lat="48.41839" lon="2.38228">
        <ele>57.34</ele>
        <time>2024-05-05T07:31:10Z</time>
      </trkpt>
      <trkpt lat="48.41842" lon="2.38232">
        <ele>57.34</ele>
        <time>2024-05-05T07:31:11Z</time>
      </trkpt>
      <trkpt lat="48.41845" lon="2.38238">
        <ele>57.34</ele>
        <time>2024-05-05T07:31:12Z</time>
      </trkpt>
      <trkpt lat="48.41872" lon="2.3829">
        <ele>56.86</ele>
        <time>2024-05-05T07:31:22Z</time>
      </trkpt>
      <trkpt lat="48.41876" lon="2.38294">
        <ele>56.86</ele>
        <time>2024-05-05T07:31:23Z</time>
      </trkpt>
      <trkpt lat="48.4188" lon="2.38298">
        <ele>56.86</ele>
        <time>2024-05-05T07:31:24Z</time>
      </trkpt>
      <trkpt lat="48.41883" lon="2.383">
        <ele>56.37</ele>
        <time>2024-05-05T07:31:25Z</time>
      </trkpt>
      <trkpt lat="48.41888" lon="2.38302">
        <ele>56.37</ele>
        <time>2024-05-05T07:31:26Z</time>
      </trkpt>
      <trkpt lat="48.41892" lon="2.38303">
        <ele>56.37</ele>
        <time>2024-05-05T07:31:27Z</time>
      </trkpt>
      <trkpt lat="48.41897" lon="2.38303">
        <ele>56.37</ele>
        <time>2024-05-05T07:31:28Z</time>
      </trkpt>
      <trkpt lat="48.41901" lon="2.38303">
        <ele>56.37</ele>
        <time>2024-05-05T07:31:29Z</time>
      </trkpt>
      <trkpt lat="48.41905" lon="2.38302">
        <ele>56.37</ele>
        <time>2024-05-05T07:31:30Z</time>
      </trkpt>
      <trkpt lat="48.41931" lon="2.38305">
        <ele>56.37</ele>
        <time>2024-05-05T07:31:37Z</time>
      </trkpt>
      <trkpt lat="48.41933" lon="2.38309">
        <ele>56.37</ele>
        <time>2024-05-05T07:31:38Z</time>
      </trkpt>
      <trkpt lat="48.41936" lon="2.38317">
        <ele>56.37</ele>
        <time>2024-05-05T07:31:46Z</time>
      </trkpt>
      <trkpt lat="48.41939" lon="2.38322">
        <ele>57.34</ele>
        <time>2024-05-05T07:31:53Z</time>
      </trkpt>
      <trkpt lat="48.41947" lon="2.38337">
        <ele>57.34</ele>
        <time>2024-05-05T07:32:05Z</time>
      </trkpt>
      <trkpt lat="48.41947" lon="2.38341">
        <ele>57.34</ele>
        <time>2024-05-05T07:32:07Z</time>
      </trkpt>
      <trkpt lat="48.41947" lon="2.38343">
        <ele>57.34</ele>
        <time>2024-05-05T07:32:08Z</time>
      </trkpt>
      <trkpt lat="48.41947" lon="2.38344">
        <ele>57.34</ele>
        <time>2024-05-05T07:32:09Z</time>
      </trkpt>
      <trkpt lat="48.41946" lon="2.38346">
        <ele>57.34</ele>
        <time>2024-05-05T07:32:10Z</time>
      </trkpt>
      <trkpt lat="48.41946" lon="2.38348">
        <ele>57.34</ele>
        <time>2024-05-05T07:32:11Z</time>
      </trkpt>
      <trkpt lat="48.41946" lon="2.3835">
        <ele>57.34</ele>
        <time>2024-05-05T07:32:12Z</time>
      </trkpt>
      <trkpt lat="48.41939" lon="2.38373">
        <ele>57.34</ele>
        <time>2024-05-05T07:32:24Z</time>
      </trkpt>
      <trkpt lat="48.41941" lon="2.38379">
        <ele>57.34</ele>
        <time>2024-05-05T07:32:29Z</time>
      </trkpt>
      <trkpt lat="48.41941" lon="2.3838">
        <ele>57.34</ele>
        <time>2024-05-05T07:32:30Z</time>
      </trkpt>
      <trkpt lat="48.41942" lon="2.38382">
        <ele>57.34</ele>
        <time>2024-05-05T07:32:31Z</time>
      </trkpt>
      <trkpt lat="48.41947" lon="2.38395">
        <ele>57.34</ele>
        <time>2024-05-05T07:32:45Z</time>
      </trkpt>
      <trkpt lat="48.4195" lon="2.38394">
        <ele>57.34</ele>
        <time>2024-05-05T07:32:54Z</time>
      </trkpt>
      <trkpt lat="48.41953" lon="2.38393">
        <ele>57.34</ele>
        <time>2024-05-05T07:33:06Z</time>
      </trkpt>
      <trkpt lat="48.41954" lon="2.38393">
        <ele>57.34</ele>
        <time>2024-05-05T07:33:26Z</time>
      </trkpt>
      <trkpt lat="48.41953" lon="2.38391">
        <ele>57.34</ele>
        <time>2024-05-05T07:33:43Z</time>
      </trkpt>
      <trkpt lat="48.41955" lon="2.38389">
        <ele>57.34</ele>
        <time>2024-05-05T07:33:59Z</time>
      </trkpt>
      <trkpt lat="48.41956" lon="2.3839">
        <ele>57.34</ele>
        <time>2024-05-05T07:34:00Z</time>
      </trkpt>
      <trkpt lat="48.41958" lon="2.38391">
        <ele>57.34</ele>
        <time>2024-05-05T07:34:01Z</time>
      </trkpt>
      <trkpt lat="48.41959" lon="2.38392">
        <ele>57.34</ele>
        <time>2024-05-05T07:34:02Z</time>
      </trkpt>
      <trkpt lat="48.41961" lon="2.38393">
        <ele>57.34</ele>
        <time>2024-05-05T07:34:03Z</time>
      </trkpt>
      <trkpt lat="48.41962" lon="2.38395">
        <ele>57.34</ele>
        <time>2024-05-05T07:34:04Z</time>
      </trkpt>
      <trkpt lat="48.41968" lon="2.38403">
        <ele>57.34</ele>
        <time>2024-05-05T07:34:07Z</time>
      </trkpt>
      <trkpt lat="48.41986" lon="2.38438">
        <ele>57.34</ele>
        <time>2024-05-05T07:34:18Z</time>
      </trkpt>
      <trkpt lat="48.42016" lon="2.38483">
        <ele>57.34</ele>
        <time>2024-05-05T07:34:32Z</time>
      </trkpt>
      <trkpt lat="48.42039" lon="2.38521">
        <ele>57.34</ele>
        <time>2024-05-05T07:34:44Z</time>
      </trkpt>
      <trkpt lat="48.4206" lon="2.38578">
        <ele>57.82</ele>
        <time>2024-05-05T07:34:56Z</time>
      </trkpt>
      <trkpt lat="48.42094" lon="2.38649">
        <ele>58.3</ele>
        <time>2024-05-05T07:35:11Z</time>
      </trkpt>
      <trkpt lat="48.42099" lon="2.38668">
        <ele>58.78</ele>
        <time>2024-05-05T07:35:16Z</time>
      </trkpt>
      <trkpt lat="48.42099" lon="2.3867">
        <ele>58.78</ele>
        <time>2024-05-05T07:35:17Z</time>
      </trkpt>
      <trkpt lat="48.42097" lon="2.38673">
        <ele>58.78</ele>
        <time>2024-05-05T07:35:18Z</time>
      </trkpt>
      <trkpt lat="48.42095" lon="2.38674">
        <ele>58.78</ele>
        <time>2024-05-05T07:35:19Z</time>
      </trkpt>
      <trkpt lat="48.42092" lon="2.38675">
        <ele>58.78</ele>
        <time>2024-05-05T07:35:20Z</time>
      </trkpt>
      <trkpt lat="48.4209" lon="2.38677">
        <ele>58.78</ele>
        <time>2024-05-05T07:35:21Z</time>
      </trkpt>
      <trkpt lat="48.42023" lon="2.38718">
        <ele>58.78</ele>
        <time>2024-05-05T07:35:39Z</time>
      </trkpt>
      <trkpt lat="48.41952" lon="2.38765">
        <ele>59.26</ele>
        <time>2024-05-05T07:35:57Z</time>
      </trkpt>
      <trkpt lat="48.41944" lon="2.38769">
        <ele>59.26</ele>
        <time>2024-05-05T07:35:59Z</time>
      </trkpt>
      <trkpt lat="48.4194" lon="2.38771">
        <ele>59.26</ele>
        <time>2024-05-05T07:36:00Z</time>
      </trkpt>
      <trkpt lat="48.41936" lon="2.38773">
        <ele>59.26</ele>
        <time>2024-05-05T07:36:01Z</time>
      </trkpt>
      <trkpt lat="48.41928" lon="2.3878">
        <ele>59.74</ele>
        <time>2024-05-05T07:36:03Z</time>
      </trkpt>
      <trkpt lat="48.41875" lon="2.38802">
        <ele>59.74</ele>
        <time>2024-05-05T07:36:17Z</time>
      </trkpt>
      <trkpt lat="48.41857" lon="2.38815">
        <ele>59.74</ele>
        <time>2024-05-05T07:36:23Z</time>
      </trkpt>
      <trkpt lat="48.41856" lon="2.38819">
        <ele>59.74</ele>
        <time>2024-05-05T07:36:24Z</time>
      </trkpt>
      <trkpt lat="48.41857" lon="2.38822">
        <ele>59.74</ele>
        <time>2024-05-05T07:36:25Z</time>
      </trkpt>
      <trkpt lat="48.41859" lon="2.38823">
        <ele>59.74</ele>
        <time>2024-05-05T07:36:26Z</time>
      </trkpt>
      <trkpt lat="48.41859" lon="2.38821">
        <ele>59.74</ele>
        <time>2024-05-05T07:36:27Z</time>
      </trkpt>
      <trkpt lat="48.41859" lon="2.38819">
        <ele>59.74</ele>
        <time>2024-05-05T07:36:28Z</time>
      </trkpt>
      <trkpt lat="48.41858" lon="2.38816">
        <ele>59.74</ele>
        <time>2024-05-05T07:36:29Z</time>
      </trkpt>
      <trkpt lat="48.41858" lon="2.38814">
        <ele>59.74</ele>
        <time>2024-05-05T07:36:30Z</time>
      </trkpt>
      <trkpt lat="48.41852" lon="2.38807">
        <ele>59.74</ele>
        <time>2024-05-05T07:36:34Z</time>
      </trkpt>
      <trkpt lat="48.4185" lon="2.38807">
        <ele>59.74</ele>
        <time>2024-05-05T07:36:35Z</time>
      </trkpt>
      <trkpt lat="48.41847" lon="2.38807">
        <ele>59.74</ele>
        <time>2024-05-05T07:36:36Z</time>
      </trkpt>
      <trkpt lat="48.41845" lon="2.38808">
        <ele>59.74</ele>
        <time>2024-05-05T07:36:37Z</time>
      </trkpt>
      <trkpt lat="48.41842" lon="2.38809">
        <ele>59.74</ele>
        <time>2024-05-05T07:36:38Z</time>
      </trkpt>
      <trkpt lat="48.4184" lon="2.3881">
        <ele>59.74</ele>
        <time>2024-05-05T07:36:39Z</time>
      </trkpt>
      <trkpt lat="48.41837" lon="2.38812">
        <ele>59.74</ele>
        <time>2024-05-05T07:36:40Z</time>
      </trkpt>
      <trkpt lat="48.41835" lon="2.38814">
        <ele>59.74</ele>
        <time>2024-05-05T07:36:41Z</time>
      </trkpt>
      <trkpt lat="48.41807" lon="2.38854">
        <ele>59.74</ele>
        <time>2024-05-05T07:36:55Z</time>
      </trkpt>
      <trkpt lat="48.41782" lon="2.3888">
        <ele>59.74</ele>
        <time>2024-05-05T07:37:03Z</time>
      </trkpt>
      <trkpt lat="48.41742" lon="2.38912">
        <ele>58.3</ele>
        <time>2024-05-05T07:37:14Z</time>
      </trkpt>
      <trkpt lat="48.41738" lon="2.38915">
        <ele>58.3</ele>
        <time>2024-05-05T07:37:15Z</time>
      </trkpt>
      <trkpt lat="48.41734" lon="2.38918">
        <ele>58.3</ele>
        <time>2024-05-05T07:37:16Z</time>
      </trkpt>
      <trkpt lat="48.41673" lon="2.38966">
        <ele>58.3</ele>
        <time>2024-05-05T07:37:34Z</time>
      </trkpt>
      <trkpt lat="48.41643" lon="2.38993">
        <ele>59.74</ele>
        <time>2024-05-05T07:37:43Z</time>
      </trkpt>
      <trkpt lat="48.41562" lon="2.39058">
        <ele>61.66</ele>
        <time>2024-05-05T07:38:06Z</time>
      </trkpt>
      <trkpt lat="48.41512" lon="2.391">
        <ele>61.66</ele>
        <time>2024-05-05T07:38:21Z</time>
      </trkpt>
      <trkpt lat="48.41441" lon="2.3916">
        <ele>61.66</ele>
        <time>2024-05-05T07:38:39Z</time>
      </trkpt>
      <trkpt lat="48.41417" lon="2.3918">
        <ele>61.66</ele>
        <time>2024-05-05T07:38:45Z</time>
      </trkpt>
      <trkpt lat="48.41338" lon="2.39244">
        <ele>60.7</ele>
        <time>2024-05-05T07:39:04Z</time>
      </trkpt>
      <trkpt lat="48.413" lon="2.39275">
        <ele>60.7</ele>
        <time>2024-05-05T07:39:13Z</time>
      </trkpt>
      <trkpt lat="48.41296" lon="2.39278">
        <ele>60.7</ele>
        <time>2024-05-05T07:39:14Z</time>
      </trkpt>
      <trkpt lat="48.41216" lon="2.39339">
        <ele>58.78</ele>
        <time>2024-05-05T07:39:32Z</time>
      </trkpt>
      <trkpt lat="48.41156" lon="2.39388">
        <ele>58.3</ele>
        <time>2024-05-05T07:39:47Z</time>
      </trkpt>
      <trkpt lat="48.41117" lon="2.39425">
        <ele>59.74</ele>
        <time>2024-05-05T07:39:58Z</time>
      </trkpt>
      <trkpt lat="48.41092" lon="2.39443">
        <ele>60.7</ele>
        <time>2024-05-05T07:40:05Z</time>
      </trkpt>
      <trkpt lat="48.41088" lon="2.39445">
        <ele>60.7</ele>
        <time>2024-05-05T07:40:06Z</time>
      </trkpt>
      <trkpt lat="48.41084" lon="2.39445">
        <ele>60.7</ele>
        <time>2024-05-05T07:40:07Z</time>
      </trkpt>
      <trkpt lat="48.4108" lon="2.39445">
        <ele>61.18</ele>
        <time>2024-05-05T07:40:08Z</time>
      </trkpt>
      <trkpt lat="48.41076" lon="2.39444">
        <ele>61.18</ele>
        <time>2024-05-05T07:40:09Z</time>
      </trkpt>
      <trkpt lat="48.41072" lon="2.39443">
        <ele>60.7</ele>
        <time>2024-05-05T07:40:10Z</time>
      </trkpt>
      <trkpt lat="48.41067" lon="2.39442">
        <ele>60.7</ele>
        <time>2024-05-05T07:40:11Z</time>
      </trkpt>
      <trkpt lat="48.40974" lon="2.394">
        <ele>61.18</ele>
        <time>2024-05-05T07:40:32Z</time>
      </trkpt>
      <trkpt lat="48.40942" lon="2.39396">
        <ele>61.18</ele>
        <time>2024-05-05T07:40:39Z</time>
      </trkpt>
      <trkpt lat="48.40882" lon="2.39405">
        <ele>60.22</ele>
        <time>2024-05-05T07:40:53Z</time>
      </trkpt>
      <trkpt lat="48.40878" lon="2.39406">
        <ele>60.22</ele>
        <time>2024-05-05T07:40:54Z</time>
      </trkpt>
      <trkpt lat="48.40854" lon="2.39411">
        <ele>60.22</ele>
        <time>2024-05-05T07:41:04Z</time>
      </trkpt>
      <trkpt lat="48.4085" lon="2.39412">
        <ele>60.22</ele>
        <time>2024-05-05T07:41:08Z</time>
      </trkpt>
      <trkpt lat="48.40849" lon="2.39411">
        <ele>60.22</ele>
        <time>2024-05-05T07:41:09Z</time>
      </trkpt>
      <trkpt lat="48.40813" lon="2.39414">
        <ele>60.22</ele>
        <time>2024-05-05T07:41:24Z</time>
      </trkpt>
      <trkpt lat="48.4078" lon="2.3942">
        <ele>60.22</ele>
        <time>2024-05-05T07:41:37Z</time>
      </trkpt>
      <trkpt lat="48.40778" lon="2.39419">
        <ele>60.22</ele>
        <time>2024-05-05T07:41:38Z</time>
      </trkpt>
      <trkpt lat="48.40776" lon="2.3942">
        <ele>60.22</ele>
        <time>2024-05-05T07:41:39Z</time>
      </trkpt>
      <trkpt lat="48.40762" lon="2.39425">
        <ele>60.22</ele>
        <time>2024-05-05T07:41:50Z</time>
      </trkpt>
      <trkpt lat="48.40762" lon="2.39426">
        <ele>60.22</ele>
        <time>2024-05-05T07:42:24Z</time>
      </trkpt>
      <trkpt lat="48.4076" lon="2.39424">
        <ele>60.22</ele>
        <time>2024-05-05T07:42:29Z</time>
      </trkpt>
      <trkpt lat="48.40726" lon="2.39435">
        <ele>60.22</ele>
        <time>2024-05-05T07:42:42Z</time>
      </trkpt>
      <trkpt lat="48.40673" lon="2.39451">
        <ele>60.22</ele>
        <time>2024-05-05T07:42:55Z</time>
      </trkpt>
      <trkpt lat="48.40669" lon="2.39452">
        <ele>60.22</ele>
        <time>2024-05-05T07:42:56Z</time>
      </trkpt>
      <trkpt lat="48.40643" lon="2.39461">
        <ele>61.66</ele>
        <time>2024-05-05T07:43:02Z</time>
      </trkpt>
      <trkpt lat="48.40576" lon="2.39523">
        <ele>62.14</ele>
        <time>2024-05-05T07:43:19Z</time>
      </trkpt>
      <trkpt lat="48.40523" lon="2.3963">
        <ele>62.14</ele>
        <time>2024-05-05T07:43:38Z</time>
      </trkpt>
      <trkpt lat="48.40468" lon="2.39746">
        <ele>62.14</ele>
        <time>2024-05-05T07:43:58Z</time>
      </trkpt>
      <trkpt lat="48.40431" lon="2.39854">
        <ele>62.14</ele>
        <time>2024-05-05T07:44:16Z</time>
      </trkpt>
      <trkpt lat="48.40369" lon="2.39952">
        <ele>62.14</ele>
        <time>2024-05-05T07:44:35Z</time>
      </trkpt>
      <trkpt lat="48.40365" lon="2.39954">
        <ele>62.14</ele>
        <time>2024-05-05T07:44:36Z</time>
      </trkpt>
      <trkpt lat="48.4036" lon="2.39956">
        <ele>62.14</ele>
        <time>2024-05-05T07:44:37Z</time>
      </trkpt>
      <trkpt lat="48.40356" lon="2.39958">
        <ele>62.14</ele>
        <time>2024-05-05T07:44:38Z</time>
      </trkpt>
      <trkpt lat="48.40351" lon="2.39958">
        <ele>62.14</ele>
        <time>2024-05-05T07:44:39Z</time>
      </trkpt>
      <trkpt lat="48.40346" lon="2.39959">
        <ele>62.14</ele>
        <time>2024-05-05T07:44:40Z</time>
      </trkpt>
      <trkpt lat="48.40342" lon="2.3996">
        <ele>62.14</ele>
        <time>2024-05-05T07:44:41Z</time>
      </trkpt>
      <trkpt lat="48.40337" lon="2.3996">
        <ele>62.14</ele>
        <time>2024-05-05T07:44:42Z</time>
      </trkpt>
      <trkpt lat="48.40252" lon="2.39962">
        <ele>60.7</ele>
        <time>2024-05-05T07:45:00Z</time>
      </trkpt>
      <trkpt lat="48.40176" lon="2.3995">
        <ele>61.18</ele>
        <time>2024-05-05T07:45:16Z</time>
      </trkpt>
      <trkpt lat="48.40076" lon="2.39914">
        <ele>60.7</ele>
        <time>2024-05-05T07:45:38Z</time>
      </trkpt>
      <trkpt lat="48.40072" lon="2.39911">
        <ele>60.7</ele>
        <time>2024-05-05T07:45:39Z</time>
      </trkpt>
      <trkpt lat="48.40063" lon="2.39906">
        <ele>60.7</ele>
        <time>2024-05-05T07:45:41Z</time>
      </trkpt>
      <trkpt lat="48.40052" lon="2.39901">
        <ele>61.66</ele>
        <time>2024-05-05T07:45:44Z</time>
      </trkpt>
      <trkpt lat="48.39998" lon="2.3987">
        <ele>60.7</ele>
        <time>2024-05-05T07:45:57Z</time>
      </trkpt>
      <trkpt lat="48.39936" lon="2.39819">
        <ele>60.7</ele>
        <time>2024-05-05T07:46:12Z</time>
      </trkpt>
      <trkpt lat="48.3987" lon="2.39768">
        <ele>60.7</ele>
        <time>2024-05-05T07:46:29Z</time>
      </trkpt>
      <trkpt lat="48.39794" lon="2.39696">
        <ele>60.7</ele>
        <time>2024-05-05T07:46:48Z</time>
      </trkpt>
      <trkpt lat="48.3979" lon="2.39692">
        <ele>60.7</ele>
        <time>2024-05-05T07:46:49Z</time>
      </trkpt>
      <trkpt lat="48.39786" lon="2.39689">
        <ele>60.7</ele>
        <time>2024-05-05T07:46:50Z</time>
      </trkpt>
      <trkpt lat="48.39782" lon="2.39686">
        <ele>60.7</ele>
        <time>2024-05-05T07:46:51Z</time>
      </trkpt>
      <trkpt lat="48.39778" lon="2.39682">
        <ele>60.7</ele>
        <time>2024-05-05T07:46:52Z</time>
      </trkpt>
      <trkpt lat="48.39774" lon="2.39679">
        <ele>60.7</ele>
        <time>2024-05-05T07:46:53Z</time>
      </trkpt>
      <trkpt lat="48.3977" lon="2.39675">
        <ele>60.7</ele>
        <time>2024-05-05T07:46:54Z</time>
      </trkpt>
      <trkpt lat="48.39766" lon="2.39672">
        <ele>60.7</ele>
        <time>2024-05-05T07:46:55Z</time>
      </trkpt>
      <trkpt lat="48.39719" lon="2.3963">
        <ele>60.7</ele>
        <time>2024-05-05T07:47:08Z</time>
      </trkpt>
      <trkpt lat="48.39685" lon="2.39599">
        <ele>60.7</ele>
        <time>2024-05-05T07:47:17Z</time>
      </trkpt>
      <trkpt lat="48.39681" lon="2.39596">
        <ele>60.7</ele>
        <time>2024-05-05T07:47:18Z</time>
      </trkpt>
      <trkpt lat="48.39678" lon="2.39593">
        <ele>60.7</ele>
        <time>2024-05-05T07:47:19Z</time>
      </trkpt>
      <trkpt lat="48.39674" lon="2.39589">
        <ele>60.7</ele>
        <time>2024-05-05T07:47:20Z</time>
      </trkpt>
      <trkpt lat="48.3967" lon="2.39586">
        <ele>60.7</ele>
        <time>2024-05-05T07:47:21Z</time>
      </trkpt>
      <trkpt lat="48.39603" lon="2.39525">
        <ele>60.7</ele>
        <time>2024-05-05T07:47:37Z</time>
      </trkpt>
      <trkpt lat="48.39599" lon="2.3952">
        <ele>60.7</ele>
        <time>2024-05-05T07:47:38Z</time>
      </trkpt>
      <trkpt lat="48.39596" lon="2.39514">
        <ele>60.7</ele>
        <time>2024-05-05T07:47:39Z</time>
      </trkpt>
      <trkpt lat="48.39595" lon="2.39507">
        <ele>60.7</ele>
        <time>2024-05-05T07:47:40Z</time>
      </trkpt>
      <trkpt lat="48.39595" lon="2.395">
        <ele>60.7</ele>
        <time>2024-05-05T07:47:41Z</time>
      </trkpt>
      <trkpt lat="48.39596" lon="2.39493">
        <ele>60.7</ele>
        <time>2024-05-05T07:47:42Z</time>
      </trkpt>
      <trkpt lat="48.39598" lon="2.39485">
        <ele>60.7</ele>
        <time>2024-05-05T07:47:43Z</time>
      </trkpt>
      <trkpt lat="48.39601" lon="2.39471">
        <ele>60.7</ele>
        <time>2024-05-05T07:47:45Z</time>
      </trkpt>
      <trkpt lat="48.39623" lon="2.39387">
        <ele>60.7</ele>
        <time>2024-05-05T07:47:58Z</time>
      </trkpt>
      <trkpt lat="48.39625" lon="2.3938">
        <ele>60.7</ele>
        <time>2024-05-05T07:47:59Z</time>
      </trkpt>
      <trkpt lat="48.39646" lon="2.39279">
        <ele>60.7</ele>
        <time>2024-05-05T07:48:16Z</time>
      </trkpt>
      <trkpt lat="48.39648" lon="2.39257">
        <ele>60.7</ele>
        <time>2024-05-05T07:48:26Z</time>
      </trkpt>
      <trkpt lat="48.39648" lon="2.39256">
        <ele>60.7</ele>
        <time>2024-05-05T07:48:58Z</time>
      </trkpt>
      <trkpt lat="48.39647" lon="2.39254">
        <ele>60.7</ele>
        <time>2024-05-05T07:49:04Z</time>
      </trkpt>
      <trkpt lat="48.39646" lon="2.39253">
        <ele>60.7</ele>
        <time>2024-05-05T07:49:05Z</time>
      </trkpt>
      <trkpt lat="48.39644" lon="2.39253">
        <ele>60.7</ele>
        <time>2024-05-05T07:49:06Z</time>
      </trkpt>
      <trkpt lat="48.39643" lon="2.39253">
        <ele>60.7</ele>
        <time>2024-05-05T07:49:07Z</time>
      </trkpt>
      <trkpt lat="48.39641" lon="2.39254">
        <ele>60.7</ele>
        <time>2024-05-05T07:49:08Z</time>
      </trkpt>
      <trkpt lat="48.39638" lon="2.39253">
        <ele>60.7</ele>
        <time>2024-05-05T07:49:09Z</time>
      </trkpt>
      <trkpt lat="48.39636" lon="2.39253">
        <ele>60.7</ele>
        <time>2024-05-05T07:49:10Z</time>
      </trkpt>
      <trkpt lat="48.39581" lon="2.39236">
        <ele>60.7</ele>
        <time>2024-05-05T07:49:24Z</time>
      </trkpt>
      <trkpt lat="48.39533" lon="2.39217">
        <ele>60.7</ele>
        <time>2024-05-05T07:49:35Z</time>
      </trkpt>
      <trkpt lat="48.39528" lon="2.39215">
        <ele>60.7</ele>
        <time>2024-05-05T07:49:36Z</time>
      </trkpt>
      <trkpt lat="48.3952" lon="2.39212">
        <ele>60.7</ele>
        <time>2024-05-05T07:49:38Z</time>
      </trkpt>
      <trkpt lat="48.39516" lon="2.39211">
        <ele>62.14</ele>
        <time>2024-05-05T07:49:39Z</time>
      </trkpt>
      <trkpt lat="48.3946" lon="2.39185">
        <ele>62.14</ele>
        <time>2024-05-05T07:49:51Z</time>
      </trkpt>
      <trkpt lat="48.39368" lon="2.39145">
        <ele>62.14</ele>
        <time>2024-05-05T07:50:10Z</time>
      </trkpt>
      <trkpt lat="48.39353" lon="2.39138">
        <ele>62.62</ele>
        <time>2024-05-05T07:50:13Z</time>
      </trkpt>
      <trkpt lat="48.39304" lon="2.39117">
        <ele>62.62</ele>
        <time>2024-05-05T07:50:25Z</time>
      </trkpt>
      <trkpt lat="48.39278" lon="2.39105">
        <ele>61.18</ele>
        <time>2024-05-05T07:50:34Z</time>
      </trkpt>
      <trkpt lat="48.39264" lon="2.3909">
        <ele>61.18</ele>
        <time>2024-05-05T07:50:45Z</time>
      </trkpt>
      <trkpt lat="48.39262" lon="2.3909">
        <ele>61.18</ele>
        <time>2024-05-05T07:50:53Z</time>
      </trkpt>
      <trkpt lat="48.3926" lon="2.3909">
        <ele>61.18</ele>
        <time>2024-05-05T07:50:54Z</time>
      </trkpt>
      <trkpt lat="48.39259" lon="2.39092">
        <ele>61.18</ele>
        <time>2024-05-05T07:50:55Z</time>
      </trkpt>
      <trkpt lat="48.39257" lon="2.39093">
        <ele>61.18</ele>
        <time>2024-05-05T07:50:56Z</time>
      </trkpt>
      <trkpt lat="48.39256" lon="2.39096">
        <ele>61.18</ele>
        <time>2024-05-05T07:50:57Z</time>
      </trkpt>
      <trkpt lat="48.39241" lon="2.39155">
        <ele>61.18</ele>
        <time>2024-05-05T07:51:09Z</time>
      </trkpt>
      <trkpt lat="48.39242" lon="2.3927">
        <ele>61.66</ele>
        <time>2024-05-05T07:51:26Z</time>
      </trkpt>
      <trkpt lat="48.39243" lon="2.39278">
        <ele>61.66</ele>
        <time>2024-05-05T07:51:27Z</time>
      </trkpt>
      <trkpt lat="48.39257" lon="2.3937">
        <ele>63.1</ele>
        <time>2024-05-05T07:51:40Z</time>
      </trkpt>
      <trkpt lat="48.39291" lon="2.39487">
        <ele>63.58</ele>
        <time>2024-05-05T07:51:57Z</time>
      </trkpt>
      <trkpt lat="48.39298" lon="2.39514">
        <ele>64.07</ele>
        <time>2024-05-05T07:52:01Z</time>
      </trkpt>
      <trkpt lat="48.39297" lon="2.3952">
        <ele>64.07</ele>
        <time>2024-05-05T07:52:02Z</time>
      </trkpt>
      <trkpt lat="48.39294" lon="2.39525">
        <ele>64.07</ele>
        <time>2024-05-05T07:52:03Z</time>
      </trkpt>
      <trkpt lat="48.39291" lon="2.39527">
        <ele>64.07</ele>
        <time>2024-05-05T07:52:04Z</time>
      </trkpt>
      <trkpt lat="48.39288" lon="2.39528">
        <ele>64.07</ele>
        <time>2024-05-05T07:52:05Z</time>
      </trkpt>
      <trkpt lat="48.39284" lon="2.39527">
        <ele>64.55</ele>
        <time>2024-05-05T07:52:06Z</time>
      </trkpt>
      <trkpt lat="48.39281" lon="2.39524">
        <ele>64.55</ele>
        <time>2024-05-05T07:52:07Z</time>
      </trkpt>
      <trkpt lat="48.39278" lon="2.39521">
        <ele>64.55</ele>
        <time>2024-05-05T07:52:08Z</time>
      </trkpt>
      <trkpt lat="48.39276" lon="2.39518">
        <ele>64.55</ele>
        <time>2024-05-05T07:52:09Z</time>
      </trkpt>
      <trkpt lat="48.39246" lon="2.39466">
        <ele>64.55</ele>
        <time>2024-05-05T07:52:21Z</time>
      </trkpt>
      <trkpt lat="48.39219" lon="2.39399">
        <ele>64.55</ele>
        <time>2024-05-05T07:52:33Z</time>
      </trkpt>
      <trkpt lat="48.39189" lon="2.39325">
        <ele>63.1</ele>
        <time>2024-05-05T07:52:46Z</time>
      </trkpt>
      <trkpt lat="48.39174" lon="2.39291">
        <ele>63.1</ele>
        <time>2024-05-05T07:52:52Z</time>
      </trkpt>
      <trkpt lat="48.39171" lon="2.39287">
        <ele>63.1</ele>
        <time>2024-05-05T07:52:53Z</time>
      </trkpt>
      <trkpt lat="48.39167" lon="2.39284">
        <ele>63.1</ele>
        <time>2024-05-05T07:52:54Z</time>
      </trkpt>
      <trkpt lat="48.39163" lon="2.39281">
        <ele>63.1</ele>
        <time>2024-05-05T07:52:55Z</time>
      </trkpt>
      <trkpt lat="48.3916" lon="2.39278">
        <ele>63.1</ele>
        <time>2024-05-05T07:52:56Z</time>
      </trkpt>
      <trkpt lat="48.39155" lon="2.39277">
        <ele>63.1</ele>
        <time>2024-05-05T07:52:57Z</time>
      </trkpt>
      <trkpt lat="48.39151" lon="2.39276">
        <ele>63.1</ele>
        <time>2024-05-05T07:52:58Z</time>
      </trkpt>
      <trkpt lat="48.39147" lon="2.39276">
        <ele>63.1</ele>
        <time>2024-05-05T07:52:59Z</time>
      </trkpt>
      <trkpt lat="48.39143" lon="2.39278">
        <ele>63.1</ele>
        <time>2024-05-05T07:53:00Z</time>
      </trkpt>
      <trkpt lat="48.39138" lon="2.39278">
        <ele>63.1</ele>
        <time>2024-05-05T07:53:01Z</time>
      </trkpt>
      <trkpt lat="48.39134" lon="2.39278">
        <ele>63.1</ele>
        <time>2024-05-05T07:53:02Z</time>
      </trkpt>
      <trkpt lat="48.3913" lon="2.39276">
        <ele>63.1</ele>
        <time>2024-05-05T07:53:03Z</time>
      </trkpt>
      <trkpt lat="48.39084" lon="2.39242">
        <ele>64.55</ele>
        <time>2024-05-05T07:53:16Z</time>
      </trkpt>
      <trkpt lat="48.39061" lon="2.39221">
        <ele>64.55</ele>
        <time>2024-05-05T07:53:22Z</time>
      </trkpt>
      <trkpt lat="48.39053" lon="2.39216">
        <ele>64.55</ele>
        <time>2024-05-05T07:53:24Z</time>
      </trkpt>
      <trkpt lat="48.3904" lon="2.39204">
        <ele>64.55</ele>
        <time>2024-05-05T07:53:27Z</time>
      </trkpt>
      <trkpt lat="48.39036" lon="2.392">
        <ele>64.55</ele>
        <time>2024-05-05T07:53:28Z</time>
      </trkpt>
      <trkpt lat="48.39033" lon="2.39196">
        <ele>64.55</ele>
        <time>2024-05-05T07:53:29Z</time>
      </trkpt>
      <trkpt lat="48.39029" lon="2.39191">
        <ele>64.55</ele>
        <time>2024-05-05T07:53:30Z</time>
      </trkpt>
      <trkpt lat="48.39025" lon="2.39186">
        <ele>64.55</ele>
        <time>2024-05-05T07:53:31Z</time>
      </trkpt>
      <trkpt lat="48.39021" lon="2.39182">
        <ele>64.55</ele>
        <time>2024-05-05T07:53:32Z</time>
      </trkpt>
      <trkpt lat="48.38968" lon="2.39116">
        <ele>65.51</ele>
        <time>2024-05-05T07:53:45Z</time>
      </trkpt>
      <trkpt lat="48.3891" lon="2.39048">
        <ele>67.43</ele>
        <time>2024-05-05T07:54:00Z</time>
      </trkpt>
      <trkpt lat="48.38883" lon="2.3904">
        <ele>67.43</ele>
        <time>2024-05-05T07:54:06Z</time>
      </trkpt>
      <trkpt lat="48.38831" lon="2.39038">
        <ele>70.31</ele>
        <time>2024-05-05T07:54:19Z</time>
      </trkpt>
      <trkpt lat="48.38789" lon="2.39032">
        <ele>69.35</ele>
        <time>2024-05-05T07:54:32Z</time>
      </trkpt>
      <trkpt lat="48.38778" lon="2.3903">
        <ele>68.87</ele>
        <time>2024-05-05T07:54:34Z</time>
      </trkpt>
      <trkpt lat="48.38772" lon="2.39029">
        <ele>68.39</ele>
        <time>2024-05-05T07:54:35Z</time>
      </trkpt>
      <trkpt lat="48.38761" lon="2.39028">
        <ele>68.39</ele>
        <time>2024-05-05T07:54:37Z</time>
      </trkpt>
      <trkpt lat="48.38736" lon="2.39027">
        <ele>67.91</ele>
        <time>2024-05-05T07:54:42Z</time>
      </trkpt>
      <trkpt lat="48.38731" lon="2.39028">
        <ele>67.91</ele>
        <time>2024-05-05T07:54:43Z</time>
      </trkpt>
      <trkpt lat="48.38727" lon="2.39029">
        <ele>67.91</ele>
        <time>2024-05-05T07:54:44Z</time>
      </trkpt>
      <trkpt lat="48.38722" lon="2.3903">
        <ele>67.91</ele>
        <time>2024-05-05T07:54:45Z</time>
      </trkpt>
      <trkpt lat="48.38718" lon="2.39031">
        <ele>67.91</ele>
        <time>2024-05-05T07:54:46Z</time>
      </trkpt>
      <trkpt lat="48.38713" lon="2.39031">
        <ele>67.91</ele>
        <time>2024-05-05T07:54:47Z</time>
      </trkpt>
      <trkpt lat="48.38709" lon="2.39031">
        <ele>67.91</ele>
        <time>2024-05-05T07:54:48Z</time>
      </trkpt>
      <trkpt lat="48.38704" lon="2.39031">
        <ele>67.91</ele>
        <time>2024-05-05T07:54:49Z</time>
      </trkpt>
      <trkpt lat="48.3865" lon="2.39041">
        <ele>67.43</ele>
        <time>2024-05-05T07:55:01Z</time>
      </trkpt>
      <trkpt lat="48.38636" lon="2.39047">
        <ele>67.43</ele>
        <time>2024-05-05T07:55:04Z</time>
      </trkpt>
      <trkpt lat="48.38631" lon="2.39048">
        <ele>67.43</ele>
        <time>2024-05-05T07:55:05Z</time>
      </trkpt>
      <trkpt lat="48.38627" lon="2.39048">
        <ele>67.43</ele>
        <time>2024-05-05T07:55:06Z</time>
      </trkpt>
      <trkpt lat="48.38622" lon="2.39049">
        <ele>66.95</ele>
        <time>2024-05-05T07:55:07Z</time>
      </trkpt>
      <trkpt lat="48.38618" lon="2.39049">
        <ele>67.43</ele>
        <time>2024-05-05T07:55:08Z</time>
      </trkpt>
      <trkpt lat="48.38613" lon="2.39049">
        <ele>67.43</ele>
        <time>2024-05-05T07:55:09Z</time>
      </trkpt>
      <trkpt lat="48.3861" lon="2.39051">
        <ele>67.43</ele>
        <time>2024-05-05T07:55:10Z</time>
      </trkpt>
      <trkpt lat="48.38606" lon="2.39053">
        <ele>67.43</ele>
        <time>2024-05-05T07:55:11Z</time>
      </trkpt>
      <trkpt lat="48.38602" lon="2.39054">
        <ele>67.43</ele>
        <time>2024-05-05T07:55:12Z</time>
      </trkpt>
      <trkpt lat="48.38598" lon="2.39056">
        <ele>67.43</ele>
        <time>2024-05-05T07:55:13Z</time>
      </trkpt>
      <trkpt lat="48.38594" lon="2.39057">
        <ele>67.43</ele>
        <time>2024-05-05T07:55:14Z</time>
      </trkpt>
      <trkpt lat="48.38581" lon="2.39059">
        <ele>67.43</ele>
        <time>2024-05-05T07:55:17Z</time>
      </trkpt>
      <trkpt lat="48.38577" lon="2.39059">
        <ele>67.43</ele>
        <time>2024-05-05T07:55:18Z</time>
      </trkpt>
      <trkpt lat="48.38573" lon="2.39061">
        <ele>67.43</ele>
        <time>2024-05-05T07:55:19Z</time>
      </trkpt>
      <trkpt lat="48.3857" lon="2.39061">
        <ele>67.43</ele>
        <time>2024-05-05T07:55:20Z</time>
      </trkpt>
      <trkpt lat="48.38567" lon="2.39062">
        <ele>67.43</ele>
        <time>2024-05-05T07:55:21Z</time>
      </trkpt>
      <trkpt lat="48.38563" lon="2.39062">
        <ele>67.43</ele>
        <time>2024-05-05T07:55:22Z</time>
      </trkpt>
      <trkpt lat="48.3856" lon="2.39062">
        <ele>67.43</ele>
        <time>2024-05-05T07:55:23Z</time>
      </trkpt>
      <trkpt lat="48.38556" lon="2.39064">
        <ele>67.43</ele>
        <time>2024-05-05T07:55:24Z</time>
      </trkpt>
      <trkpt lat="48.38552" lon="2.39065">
        <ele>67.43</ele>
        <time>2024-05-05T07:55:25Z</time>
      </trkpt>
      <trkpt lat="48.38548" lon="2.39066">
        <ele>67.43</ele>
        <time>2024-05-05T07:55:26Z</time>
      </trkpt>
      <trkpt lat="48.38515" lon="2.39083">
        <ele>67.43</ele>
        <time>2024-05-05T07:55:36Z</time>
      </trkpt>
      <trkpt lat="48.3847" lon="2.39097">
        <ele>68.87</ele>
        <time>2024-05-05T07:55:48Z</time>
      </trkpt>
      <trkpt lat="48.38461" lon="2.391">
        <ele>69.35</ele>
        <time>2024-05-05T07:55:50Z</time>
      </trkpt>
      <trkpt lat="48.38457" lon="2.39102">
        <ele>69.35</ele>
        <time>2024-05-05T07:55:51Z</time>
      </trkpt>
      <trkpt lat="48.38453" lon="2.39103">
        <ele>69.35</ele>
        <time>2024-05-05T07:55:52Z</time>
      </trkpt>
      <trkpt lat="48.38445" lon="2.39106">
        <ele>69.83</ele>
        <time>2024-05-05T07:55:54Z</time>
      </trkpt>
      <trkpt lat="48.38383" lon="2.39124">
        <ele>71.76</ele>
        <time>2024-05-05T07:56:09Z</time>
      </trkpt>
      <trkpt lat="48.38361" lon="2.39127">
        <ele>70.31</ele>
        <time>2024-05-05T07:56:13Z</time>
      </trkpt>
      <trkpt lat="48.3834" lon="2.39128">
        <ele>69.83</ele>
        <time>2024-05-05T07:56:17Z</time>
      </trkpt>
      <trkpt lat="48.38335" lon="2.39129">
        <ele>69.83</ele>
        <time>2024-05-05T07:56:18Z</time>
      </trkpt>
      <trkpt lat="48.3825" lon="2.39146">
        <ele>68.87</ele>
        <time>2024-05-05T07:56:34Z</time>
      </trkpt>
      <trkpt lat="48.38207" lon="2.39157">
        <ele>69.35</ele>
        <time>2024-05-05T07:56:43Z</time>
      </trkpt>
      <trkpt lat="48.38203" lon="2.39159">
        <ele>69.35</ele>
        <time>2024-05-05T07:56:44Z</time>
      </trkpt>
      <trkpt lat="48.3818" lon="2.39166">
        <ele>69.35</ele>
        <time>2024-05-05T07:56:49Z</time>
      </trkpt>
      <trkpt lat="48.38176" lon="2.39167">
        <ele>69.35</ele>
        <time>2024-05-05T07:56:50Z</time>
      </trkpt>
      <trkpt lat="48.38162" lon="2.39171">
        <ele>70.79</ele>
        <time>2024-05-05T07:56:53Z</time>
      </trkpt>
      <trkpt lat="48.38158" lon="2.39172">
        <ele>70.79</ele>
        <time>2024-05-05T07:56:54Z</time>
      </trkpt>
      <trkpt lat="48.38091" lon="2.39184">
        <ele>71.27</ele>
        <time>2024-05-05T07:57:11Z</time>
      </trkpt>
      <trkpt lat="48.38053" lon="2.39186">
        <ele>69.83</ele>
        <time>2024-05-05T07:57:24Z</time>
      </trkpt>
      <trkpt lat="48.37981" lon="2.39182">
        <ele>68.39</ele>
        <time>2024-05-05T07:57:39Z</time>
      </trkpt>
      <trkpt lat="48.37965" lon="2.3918">
        <ele>68.39</ele>
        <time>2024-05-05T07:57:42Z</time>
      </trkpt>
      <trkpt lat="48.37939" lon="2.3917">
        <ele>67.91</ele>
        <time>2024-05-05T07:57:47Z</time>
      </trkpt>
      <trkpt lat="48.37934" lon="2.39167">
        <ele>67.91</ele>
        <time>2024-05-05T07:57:48Z</time>
      </trkpt>
      <trkpt lat="48.37904" lon="2.39161">
        <ele>67.43</ele>
        <time>2024-05-05T07:57:54Z</time>
      </trkpt>
      <trkpt lat="48.379" lon="2.39162">
        <ele>67.43</ele>
        <time>2024-05-05T07:57:55Z</time>
      </trkpt>
      <trkpt lat="48.37866" lon="2.39153">
        <ele>66.95</ele>
        <time>2024-05-05T07:58:07Z</time>
      </trkpt>
      <trkpt lat="48.37865" lon="2.39154">
        <ele>66.95</ele>
        <time>2024-05-05T07:58:27Z</time>
      </trkpt>
      <trkpt lat="48.37863" lon="2.39155">
        <ele>66.95</ele>
        <time>2024-05-05T07:58:28Z</time>
      </trkpt>
      <trkpt lat="48.37837" lon="2.39183">
        <ele>66.95</ele>
        <time>2024-05-05T07:58:39Z</time>
      </trkpt>
      <trkpt lat="48.37768" lon="2.39242">
        <ele>66.95</ele>
        <time>2024-05-05T07:58:57Z</time>
      </trkpt>
      <trkpt lat="48.37694" lon="2.39309">
        <ele>68.87</ele>
        <time>2024-05-05T07:59:16Z</time>
      </trkpt>
      <trkpt lat="48.37672" lon="2.39329">
        <ele>69.35</ele>
        <time>2024-05-05T07:59:22Z</time>
      </trkpt>
      <trkpt lat="48.37668" lon="2.39332">
        <ele>69.35</ele>
        <time>2024-05-05T07:59:23Z</time>
      </trkpt>
      <trkpt lat="48.37664" lon="2.39335">
        <ele>69.83</ele>
        <time>2024-05-05T07:59:24Z</time>
      </trkpt>
      <trkpt lat="48.37657" lon="2.3934">
        <ele>69.83</ele>
        <time>2024-05-05T07:59:26Z</time>
      </trkpt>
      <trkpt lat="48.37652" lon="2.39342">
        <ele>70.31</ele>
        <time>2024-05-05T07:59:27Z</time>
      </trkpt>
      <trkpt lat="48.37648" lon="2.39343">
        <ele>70.31</ele>
        <time>2024-05-05T07:59:28Z</time>
      </trkpt>
      <trkpt lat="48.37643" lon="2.39342">
        <ele>70.31</ele>
        <time>2024-05-05T07:59:29Z</time>
      </trkpt>
      <trkpt lat="48.37639" lon="2.39339">
        <ele>70.31</ele>
        <time>2024-05-05T07:59:30Z</time>
      </trkpt>
      <trkpt lat="48.37636" lon="2.39334">
        <ele>70.31</ele>
        <time>2024-05-05T07:59:31Z</time>
      </trkpt>
      <trkpt lat="48.37633" lon="2.39329">
        <ele>70.31</ele>
        <time>2024-05-05T07:59:32Z</time>
      </trkpt>
      <trkpt lat="48.3763" lon="2.39323">
        <ele>70.31</ele>
        <time>2024-05-05T07:59:33Z</time>
      </trkpt>
      <trkpt lat="48.37627" lon="2.39317">
        <ele>70.31</ele>
        <time>2024-05-05T07:59:34Z</time>
      </trkpt>
      <trkpt lat="48.37625" lon="2.39309">
        <ele>70.31</ele>
        <time>2024-05-05T07:59:35Z</time>
      </trkpt>
      <trkpt lat="48.37623" lon="2.39302">
        <ele>70.31</ele>
        <time>2024-05-05T07:59:36Z</time>
      </trkpt>
      <trkpt lat="48.37622" lon="2.39294">
        <ele>70.31</ele>
        <time>2024-05-05T07:59:37Z</time>
      </trkpt>
      <trkpt lat="48.37611" lon="2.39254">
        <ele>70.31</ele>
        <time>2024-05-05T07:59:42Z</time>
      </trkpt>
      <trkpt lat="48.37608" lon="2.39247">
        <ele>70.31</ele>
        <time>2024-05-05T07:59:43Z</time>
      </trkpt>
      <trkpt lat="48.37598" lon="2.39229">
        <ele>70.31</ele>
        <time>2024-05-05T07:59:46Z</time>
      </trkpt>
      <trkpt lat="48.37537" lon="2.39159">
        <ele>70.31</ele>
        <time>2024-05-05T08:00:01Z</time>
      </trkpt>
      <trkpt lat="48.375" lon="2.39088">
        <ele>68.39</ele>
        <time>2024-05-05T08:00:12Z</time>
      </trkpt>
      <trkpt lat="48.37447" lon="2.39023">
        <ele>67.43</ele>
        <time>2024-05-05T08:00:25Z</time>
      </trkpt>
      <trkpt lat="48.37444" lon="2.39019">
        <ele>66.95</ele>
        <time>2024-05-05T08:00:27Z</time>
      </trkpt>
      <trkpt lat="48.37444" lon="2.39016">
        <ele>66.95</ele>
        <time>2024-05-05T08:00:28Z</time>
      </trkpt>
      <trkpt lat="48.37452" lon="2.38968">
        <ele>65.03</ele>
        <time>2024-05-05T08:00:39Z</time>
      </trkpt>
      <trkpt lat="48.37455" lon="2.38956">
        <ele>65.03</ele>
        <time>2024-05-05T08:00:41Z</time>
      </trkpt>
      <trkpt lat="48.37464" lon="2.38914">
        <ele>64.07</ele>
        <time>2024-05-05T08:00:47Z</time>
      </trkpt>
      <trkpt lat="48.37469" lon="2.38892">
        <ele>63.58</ele>
        <time>2024-05-05T08:00:50Z</time>
      </trkpt>
      <trkpt lat="48.37469" lon="2.38887">
        <ele>63.58</ele>
        <time>2024-05-05T08:00:51Z</time>
      </trkpt>
      <trkpt lat="48.37467" lon="2.38884">
        <ele>63.58</ele>
        <time>2024-05-05T08:00:52Z</time>
      </trkpt>
      <trkpt lat="48.37464" lon="2.38882">
        <ele>63.58</ele>
        <time>2024-05-05T08:00:53Z</time>
      </trkpt>
      <trkpt lat="48.37462" lon="2.3888">
        <ele>63.58</ele>
        <time>2024-05-05T08:00:54Z</time>
      </trkpt>
      <trkpt lat="48.37418" lon="2.38853">
        <ele>63.58</ele>
        <time>2024-05-05T08:01:07Z</time>
      </trkpt>
      <trkpt lat="48.37365" lon="2.38813">
        <ele>63.58</ele>
        <time>2024-05-05T08:01:23Z</time>
      </trkpt>
      <trkpt lat="48.37326" lon="2.38791">
        <ele>63.58</ele>
        <time>2024-05-05T08:01:35Z</time>
      </trkpt>
      <trkpt lat="48.37282" lon="2.38764">
        <ele>65.03</ele>
        <time>2024-05-05T08:01:48Z</time>
      </trkpt>
      <trkpt lat="48.37248" lon="2.3874">
        <ele>65.03</ele>
        <time>2024-05-05T08:01:58Z</time>
      </trkpt>
      <trkpt lat="48.37245" lon="2.38736">
        <ele>65.03</ele>
        <time>2024-05-05T08:01:59Z</time>
      </trkpt>
      <trkpt lat="48.37241" lon="2.38733">
        <ele>65.03</ele>
        <time>2024-05-05T08:02:00Z</time>
      </trkpt>
      <trkpt lat="48.37238" lon="2.3873">
        <ele>65.03</ele>
        <time>2024-05-05T08:02:01Z</time>
      </trkpt>
      <trkpt lat="48.37235" lon="2.38728">
        <ele>65.03</ele>
        <time>2024-05-05T08:02:02Z</time>
      </trkpt>
      <trkpt lat="48.37233" lon="2.38727">
        <ele>65.03</ele>
        <time>2024-05-05T08:02:03Z</time>
      </trkpt>
      <trkpt lat="48.3723" lon="2.38726">
        <ele>65.03</ele>
        <time>2024-05-05T08:02:04Z</time>
      </trkpt>
      <trkpt lat="48.37228" lon="2.38725">
        <ele>65.03</ele>
        <time>2024-05-05T08:02:05Z</time>
      </trkpt>
      <trkpt lat="48.37227" lon="2.38723">
        <ele>65.03</ele>
        <time>2024-05-05T08:02:06Z</time>
      </trkpt>
      <trkpt lat="48.37226" lon="2.3872">
        <ele>65.03</ele>
        <time>2024-05-05T08:02:07Z</time>
      </trkpt>
      <trkpt lat="48.37226" lon="2.38717">
        <ele>65.03</ele>
        <time>2024-05-05T08:02:08Z</time>
      </trkpt>
      <trkpt lat="48.37204" lon="2.38679">
        <ele>65.03</ele>
        <time>2024-05-05T08:02:20Z</time>
      </trkpt>
      <trkpt lat="48.37171" lon="2.38645">
        <ele>65.03</ele>
        <time>2024-05-05T08:02:35Z</time>
      </trkpt>
      <trkpt lat="48.37138" lon="2.3863">
        <ele>65.03</ele>
        <time>2024-05-05T08:02:47Z</time>
      </trkpt>
      <trkpt lat="48.37098" lon="2.38638">
        <ele>65.03</ele>
        <time>2024-05-05T08:03:00Z</time>
      </trkpt>
      <trkpt lat="48.37037" lon="2.38654">
        <ele>65.03</ele>
        <time>2024-05-05T08:03:16Z</time>
      </trkpt>
      <trkpt lat="48.37033" lon="2.38654">
        <ele>65.03</ele>
        <time>2024-05-05T08:03:18Z</time>
      </trkpt>
      <trkpt lat="48.37027" lon="2.3865">
        <ele>65.51</ele>
        <time>2024-05-05T08:03:22Z</time>
      </trkpt>
      <trkpt lat="48.37026" lon="2.38647">
        <ele>65.51</ele>
        <time>2024-05-05T08:03:23Z</time>
      </trkpt>
      <trkpt lat="48.37025" lon="2.38644">
        <ele>65.51</ele>
        <time>2024-05-05T08:03:24Z</time>
      </trkpt>
      <trkpt lat="48.37025" lon="2.38642">
        <ele>65.51</ele>
        <time>2024-05-05T08:03:25Z</time>
      </trkpt>
      <trkpt lat="48.37025" lon="2.38639">
        <ele>65.51</ele>
        <time>2024-05-05T08:03:26Z</time>
      </trkpt>
      <trkpt lat="48.37025" lon="2.38635">
        <ele>65.51</ele>
        <time>2024-05-05T08:03:27Z</time>
      </trkpt>
      <trkpt lat="48.37025" lon="2.38632">
        <ele>65.51</ele>
        <time>2024-05-05T08:03:28Z</time>
      </trkpt>
      <trkpt lat="48.37028" lon="2.38549">
        <ele>65.99</ele>
        <time>2024-05-05T08:03:44Z</time>
      </trkpt>
      <trkpt lat="48.37027" lon="2.3848">
        <ele>64.07</ele>
        <time>2024-05-05T08:03:55Z</time>
      </trkpt>
      <trkpt lat="48.37025" lon="2.38353">
        <ele>65.51</ele>
        <time>2024-05-05T08:04:14Z</time>
      </trkpt>
      <trkpt lat="48.37025" lon="2.38327">
        <ele>65.51</ele>
        <time>2024-05-05T08:04:18Z</time>
      </trkpt>
      <trkpt lat="48.37025" lon="2.38321">
        <ele>65.51</ele>
        <time>2024-05-05T08:04:19Z</time>
      </trkpt>
      <trkpt lat="48.37029" lon="2.38269">
        <ele>65.51</ele>
        <time>2024-05-05T08:04:29Z</time>
      </trkpt>
      <trkpt lat="48.37031" lon="2.38267">
        <ele>65.51</ele>
        <time>2024-05-05T08:04:30Z</time>
      </trkpt>
      <trkpt lat="48.37032" lon="2.38266">
        <ele>65.51</ele>
        <time>2024-05-05T08:04:31Z</time>
      </trkpt>
      <trkpt lat="48.37033" lon="2.38265">
        <ele>65.51</ele>
        <time>2024-05-05T08:04:32Z</time>
      </trkpt>
      <trkpt lat="48.37034" lon="2.38264">
        <ele>65.51</ele>
        <time>2024-05-05T08:04:33Z</time>
      </trkpt>
      <trkpt lat="48.37042" lon="2.38258">
        <ele>65.51</ele>
        <time>2024-05-05T08:04:38Z</time>
      </trkpt>
      <trkpt lat="48.37045" lon="2.38257">
        <ele>65.51</ele>
        <time>2024-05-05T08:04:39Z</time>
      </trkpt>
      <trkpt lat="48.37047" lon="2.38257">
        <ele>65.51</ele>
        <time>2024-05-05T08:04:40Z</time>
      </trkpt>
      <trkpt lat="48.37074" lon="2.38255">
        <ele>65.51</ele>
        <time>2024-05-05T08:04:51Z</time>
      </trkpt>
      <trkpt lat="48.37078" lon="2.38257">
        <ele>64.07</ele>
        <time>2024-05-05T08:04:54Z</time>
      </trkpt>
      <trkpt lat="48.37078" lon="2.38258">
        <ele>64.07</ele>
        <time>2024-05-05T08:04:55Z</time>
      </trkpt>
      <trkpt lat="48.37079" lon="2.38259">
        <ele>64.07</ele>
        <time>2024-05-05T08:04:56Z</time>
      </trkpt>
      <trkpt lat="48.37085" lon="2.38259">
        <ele>64.07</ele>
        <time>2024-05-05T08:05:07Z</time>
      </trkpt>
      <trkpt lat="48.37089" lon="2.38255">
        <ele>64.07</ele>
        <time>2024-05-05T08:05:13Z</time>
      </trkpt>
      <trkpt lat="48.37091" lon="2.38254">
        <ele>64.07</ele>
        <time>2024-05-05T08:05:14Z</time>
      </trkpt>
      <trkpt lat="48.37092" lon="2.38255">
        <ele>64.07</ele>
        <time>2024-05-05T08:05:15Z</time>
      </trkpt>
      <trkpt lat="48.37094" lon="2.38255">
        <ele>64.07</ele>
        <time>2024-05-05T08:05:16Z</time>
      </trkpt>
      <trkpt lat="48.37096" lon="2.38255">
        <ele>64.07</ele>
        <time>2024-05-05T08:05:17Z</time>
      </trkpt>
      <trkpt lat="48.37118" lon="2.38227">
        <ele>64.07</ele>
        <time>2024-05-05T08:05:29Z</time>
      </trkpt>
      <trkpt lat="48.37162" lon="2.38226">
        <ele>64.07</ele>
        <time>2024-05-05T08:05:42Z</time>
      </trkpt>
      <trkpt lat="48.37172" lon="2.38236">
        <ele>64.55</ele>
        <time>2024-05-05T08:05:51Z</time>
      </trkpt>
      <trkpt lat="48.37172" lon="2.38237">
        <ele>64.55</ele>
        <time>2024-05-05T08:06:00Z</time>
      </trkpt>
      <trkpt lat="48.37173" lon="2.38239">
        <ele>64.55</ele>
        <time>2024-05-05T08:06:01Z</time>
      </trkpt>
      <trkpt lat="48.37173" lon="2.38242">
        <ele>64.55</ele>
        <time>2024-05-05T08:06:02Z</time>
      </trkpt>
      <trkpt lat="48.37173" lon="2.38245">
        <ele>64.55</ele>
        <time>2024-05-05T08:06:03Z</time>
      </trkpt>
      <trkpt lat="48.37174" lon="2.38249">
        <ele>64.55</ele>
        <time>2024-05-05T08:06:04Z</time>
      </trkpt>
      <trkpt lat="48.37174" lon="2.38253">
        <ele>64.55</ele>
        <time>2024-05-05T08:06:05Z</time>
      </trkpt>
      <trkpt lat="48.37177" lon="2.38305">
        <ele>64.55</ele>
        <time>2024-05-05T08:06:17Z</time>
      </trkpt>
      <trkpt lat="48.37184" lon="2.38371">
        <ele>64.55</ele>
        <time>2024-05-05T08:06:27Z</time>
      </trkpt>
      <trkpt lat="48.37188" lon="2.38464">
        <ele>64.55</ele>
        <time>2024-05-05T08:06:41Z</time>
      </trkpt>
      <trkpt lat="48.37189" lon="2.38469">
        <ele>64.55</ele>
        <time>2024-05-05T08:06:42Z</time>
      </trkpt>
      <trkpt lat="48.37191" lon="2.38474">
        <ele>64.55</ele>
        <time>2024-05-05T08:06:43Z</time>
      </trkpt>
      <trkpt lat="48.37192" lon="2.38479">
        <ele>64.55</ele>
        <time>2024-05-05T08:06:44Z</time>
      </trkpt>
      <trkpt lat="48.37192" lon="2.38483">
        <ele>64.55</ele>
        <time>2024-05-05T08:06:45Z</time>
      </trkpt>
      <trkpt lat="48.37194" lon="2.38488">
        <ele>64.55</ele>
        <time>2024-05-05T08:06:46Z</time>
      </trkpt>
      <trkpt lat="48.37195" lon="2.38491">
        <ele>64.55</ele>
        <time>2024-05-05T08:06:47Z</time>
      </trkpt>
      <trkpt lat="48.37198" lon="2.38495">
        <ele>64.55</ele>
        <time>2024-05-05T08:06:48Z</time>
      </trkpt>
      <trkpt lat="48.37201" lon="2.38497">
        <ele>64.55</ele>
        <time>2024-05-05T08:06:49Z</time>
      </trkpt>
      <trkpt lat="48.37203" lon="2.38499">
        <ele>64.55</ele>
        <time>2024-05-05T08:06:50Z</time>
      </trkpt>
      <trkpt lat="48.37206" lon="2.38499">
        <ele>64.55</ele>
        <time>2024-05-05T08:06:51Z</time>
      </trkpt>
      <trkpt lat="48.37209" lon="2.38499">
        <ele>64.55</ele>
        <time>2024-05-05T08:06:52Z</time>
      </trkpt>
      <trkpt lat="48.37213" lon="2.38498">
        <ele>64.55</ele>
        <time>2024-05-05T08:06:53Z</time>
      </trkpt>
      <trkpt lat="48.37247" lon="2.38498">
        <ele>64.55</ele>
        <time>2024-05-05T08:07:03Z</time>
      </trkpt>
      <trkpt lat="48.37283" lon="2.38497">
        <ele>64.07</ele>
        <time>2024-05-05T08:07:13Z</time>
      </trkpt>
      <trkpt lat="48.37305" lon="2.38497">
        <ele>64.07</ele>
        <time>2024-05-05T08:07:18Z</time>
      </trkpt>
      <trkpt lat="48.3731" lon="2.38496">
        <ele>64.07</ele>
        <time>2024-05-05T08:07:19Z</time>
      </trkpt>
      <trkpt lat="48.37316" lon="2.38495">
        <ele>64.07</ele>
        <time>2024-05-05T08:07:20Z</time>
      </trkpt>
      <trkpt lat="48.37349" lon="2.38488">
        <ele>64.07</ele>
        <time>2024-05-05T08:07:28Z</time>
      </trkpt>
      <trkpt lat="48.37381" lon="2.38492">
        <ele>64.07</ele>
        <time>2024-05-05T08:07:40Z</time>
      </trkpt>
      <trkpt lat="48.37392" lon="2.38537">
        <ele>63.58</ele>
        <time>2024-05-05T08:07:50Z</time>
      </trkpt>
      <trkpt lat="48.37395" lon="2.38585">
        <ele>63.58</ele>
        <time>2024-05-05T08:08:00Z</time>
      </trkpt>
      <trkpt lat="48.37399" lon="2.38654">
        <ele>63.58</ele>
        <time>2024-05-05T08:08:12Z</time>
      </trkpt>
      <trkpt lat="48.37418" lon="2.38671">
        <ele>63.58</ele>
        <time>2024-05-05T08:08:20Z</time>
      </trkpt>
      <trkpt lat="48.37453" lon="2.38719">
        <ele>63.58</ele>
        <time>2024-05-05T08:08:32Z</time>
      </trkpt>
      <trkpt lat="48.37473" lon="2.38741">
        <ele>63.58</ele>
        <time>2024-05-05T08:08:43Z</time>
      </trkpt>
      <trkpt lat="48.3748" lon="2.38744">
        <ele>63.58</ele>
        <time>2024-05-05T08:08:50Z</time>
      </trkpt>
      <trkpt lat="48.37491" lon="2.3873">
        <ele>63.58</ele>
        <time>2024-05-05T08:09:00Z</time>
      </trkpt>
      <trkpt lat="48.37492" lon="2.38728">
        <ele>63.58</ele>
        <time>2024-05-05T08:09:01Z</time>
      </trkpt>
      <trkpt lat="48.37492" lon="2.38725">
        <ele>63.58</ele>
        <time>2024-05-05T08:09:02Z</time>
      </trkpt>
      <trkpt lat="48.37492" lon="2.38722">
        <ele>63.58</ele>
        <time>2024-05-05T08:09:03Z</time>
      </trkpt>
      <trkpt lat="48.37491" lon="2.38719">
        <ele>63.1</ele>
        <time>2024-05-05T08:09:04Z</time>
      </trkpt>
      <trkpt lat="48.37491" lon="2.38716">
        <ele>63.1</ele>
        <time>2024-05-05T08:09:05Z</time>
      </trkpt>
      <trkpt lat="48.37492" lon="2.38712">
        <ele>63.1</ele>
        <time>2024-05-05T08:09:06Z</time>
      </trkpt>
      <trkpt lat="48.37492" lon="2.38709">
        <ele>63.1</ele>
        <time>2024-05-05T08:09:07Z</time>
      </trkpt>
      <trkpt lat="48.37491" lon="2.38706">
        <ele>63.1</ele>
        <time>2024-05-05T08:09:08Z</time>
      </trkpt>
      <trkpt lat="48.37491" lon="2.38703">
        <ele>63.1</ele>
        <time>2024-05-05T08:09:09Z</time>
      </trkpt>
      <trkpt lat="48.3749" lon="2.38684">
        <ele>63.1</ele>
        <time>2024-05-05T08:09:21Z</time>
      </trkpt>
      <trkpt lat="48.37488" lon="2.38675">
        <ele>63.58</ele>
        <time>2024-05-05T08:09:46Z</time>
      </trkpt>
      <trkpt lat="48.37487" lon="2.38672">
        <ele>63.58</ele>
        <time>2024-05-05T08:09:47Z</time>
      </trkpt>
      <trkpt lat="48.37486" lon="2.38666">
        <ele>63.58</ele>
        <time>2024-05-05T08:09:49Z</time>
      </trkpt>
      <trkpt lat="48.37485" lon="2.38662">
        <ele>63.58</ele>
        <time>2024-05-05T08:09:50Z</time>
      </trkpt>
      <trkpt lat="48.37476" lon="2.38612">
        <ele>63.58</ele>
        <time>2024-05-05T08:10:01Z</time>
      </trkpt>
      <trkpt lat="48.37463" lon="2.38546">
        <ele>63.58</ele>
        <time>2024-05-05T08:10:12Z</time>
      </trkpt>
      <trkpt lat="48.37445" lon="2.38445">
        <ele>63.58</ele>
        <time>2024-05-05T08:10:27Z</time>
      </trkpt>
      <trkpt lat="48.37431" lon="2.38366">
        <ele>63.58</ele>
        <time>2024-05-05T08:10:40Z</time>
      </trkpt>
      <trkpt lat="48.37427" lon="2.38342">
        <ele>63.58</ele>
        <time>2024-05-05T08:10:44Z</time>
      </trkpt>
      <trkpt lat="48.37425" lon="2.38336">
        <ele>63.58</ele>
        <time>2024-05-05T08:10:45Z</time>
      </trkpt>
      <trkpt lat="48.37424" lon="2.3833">
        <ele>63.58</ele>
        <time>2024-05-05T08:10:46Z</time>
      </trkpt>
      <trkpt lat="48.37412" lon="2.38272">
        <ele>63.58</ele>
        <time>2024-05-05T08:10:56Z</time>
      </trkpt>
      <trkpt lat="48.37403" lon="2.38228">
        <ele>63.1</ele>
        <time>2024-05-05T08:11:06Z</time>
      </trkpt>
      <trkpt lat="48.37393" lon="2.38169">
        <ele>63.1</ele>
        <time>2024-05-05T08:11:17Z</time>
      </trkpt>
      <trkpt lat="48.37385" lon="2.38118">
        <ele>63.1</ele>
        <time>2024-05-05T08:11:27Z</time>
      </trkpt>
      <trkpt lat="48.37385" lon="2.38114">
        <ele>63.1</ele>
        <time>2024-05-05T08:11:28Z</time>
      </trkpt>
      <trkpt lat="48.37405" lon="2.38075">
        <ele>63.1</ele>
        <time>2024-05-05T08:11:38Z</time>
      </trkpt>
      <trkpt lat="48.37435" lon="2.38016">
        <ele>63.1</ele>
        <time>2024-05-05T08:11:50Z</time>
      </trkpt>
      <trkpt lat="48.37438" lon="2.38013">
        <ele>63.1</ele>
        <time>2024-05-05T08:11:51Z</time>
      </trkpt>
      <trkpt lat="48.37441" lon="2.38011">
        <ele>63.1</ele>
        <time>2024-05-05T08:11:52Z</time>
      </trkpt>
      <trkpt lat="48.37443" lon="2.38011">
        <ele>63.1</ele>
        <time>2024-05-05T08:11:53Z</time>
      </trkpt>
      <trkpt lat="48.37446" lon="2.3801">
        <ele>63.1</ele>
        <time>2024-05-05T08:11:54Z</time>
      </trkpt>
      <trkpt lat="48.37449" lon="2.3801">
        <ele>63.1</ele>
        <time>2024-05-05T08:11:55Z</time>
      </trkpt>
      <trkpt lat="48.37475" lon="2.37995">
        <ele>62.62</ele>
        <time>2024-05-05T08:12:04Z</time>
      </trkpt>
      <trkpt lat="48.37498" lon="2.3797">
        <ele>62.62</ele>
        <time>2024-05-05T08:12:15Z</time>
      </trkpt>
      <trkpt lat="48.37509" lon="2.37956">
        <ele>62.62</ele>
        <time>2024-05-05T08:12:28Z</time>
      </trkpt>
      <trkpt lat="48.37515" lon="2.37942">
        <ele>62.62</ele>
        <time>2024-05-05T08:12:45Z</time>
      </trkpt>
      <trkpt lat="48.37515" lon="2.37935">
        <ele>63.58</ele>
        <time>2024-05-05T08:12:58Z</time>
      </trkpt>
      <trkpt lat="48.37516" lon="2.37931">
        <ele>63.58</ele>
        <time>2024-05-05T08:13:11Z</time>
      </trkpt>
      <trkpt lat="48.37516" lon="2.37929">
        <ele>63.58</ele>
        <time>2024-05-05T08:13:13Z</time>
      </trkpt>
      <trkpt lat="48.37519" lon="2.37922">
        <ele>64.07</ele>
        <time>2024-05-05T08:13:17Z</time>
      </trkpt>
      <trkpt lat="48.37521" lon="2.37921">
        <ele>64.07</ele>
        <time>2024-05-05T08:13:18Z</time>
      </trkpt>
      <trkpt lat="48.37523" lon="2.3792">
        <ele>64.07</ele>
        <time>2024-05-05T08:13:19Z</time>
      </trkpt>
      <trkpt lat="48.37525" lon="2.3792">
        <ele>64.07</ele>
        <time>2024-05-05T08:13:20Z</time>
      </trkpt>
      <trkpt lat="48.37527" lon="2.37918">
        <ele>64.07</ele>
        <time>2024-05-05T08:13:21Z</time>
      </trkpt>
      <trkpt lat="48.37529" lon="2.37916">
        <ele>64.07</ele>
        <time>2024-05-05T08:13:22Z</time>
      </trkpt>
      <trkpt lat="48.37534" lon="2.37875">
        <ele>66.47</ele>
        <time>2024-05-05T08:13:32Z</time>
      </trkpt>
      <trkpt lat="48.37535" lon="2.37834">
        <ele>68.87</ele>
        <time>2024-05-05T08:13:41Z</time>
      </trkpt>
      <trkpt lat="48.37537" lon="2.37834">
        <ele>68.87</ele>
        <time>2024-05-05T08:13:42Z</time>
      </trkpt>
      <trkpt lat="48.37539" lon="2.37834">
        <ele>68.87</ele>
        <time>2024-05-05T08:13:43Z</time>
      </trkpt>
      <trkpt lat="48.37583" lon="2.37829">
        <ele>68.87</ele>
        <time>2024-05-05T08:13:57Z</time>
      </trkpt>
      <trkpt lat="48.37633" lon="2.37813">
        <ele>69.35</ele>
        <time>2024-05-05T08:14:12Z</time>
      </trkpt>
      <trkpt lat="48.37644" lon="2.37812">
        <ele>67.91</ele>
        <time>2024-05-05T08:14:15Z</time>
      </trkpt>
      <trkpt lat="48.377" lon="2.37804">
        <ele>67.91</ele>
        <time>2024-05-05T08:14:30Z</time>
      </trkpt>
      <trkpt lat="48.3774" lon="2.37802">
        <ele>67.91</ele>
        <time>2024-05-05T08:14:42Z</time>
      </trkpt>
      <trkpt lat="48.37797" lon="2.378">
        <ele>67.91</ele>
        <time>2024-05-05T08:14:56Z</time>
      </trkpt>
      <trkpt lat="48.37865" lon="2.37788">
        <ele>67.43</ele>
        <time>2024-05-05T08:15:13Z</time>
      </trkpt>
      <trkpt lat="48.37907" lon="2.3778">
        <ele>68.87</ele>
        <time>2024-05-05T08:15:25Z</time>
      </trkpt>
      <trkpt lat="48.3791" lon="2.37779">
        <ele>68.87</ele>
        <time>2024-05-05T08:15:26Z</time>
      </trkpt>
      <trkpt lat="48.37943" lon="2.37772">
        <ele>69.83</ele>
        <time>2024-05-05T08:15:38Z</time>
      </trkpt>
      <trkpt lat="48.37974" lon="2.37759">
        <ele>70.31</ele>
        <time>2024-05-05T08:15:50Z</time>
      </trkpt>
      <trkpt lat="48.38011" lon="2.37756">
        <ele>69.35</ele>
        <time>2024-05-05T08:15:58Z</time>
      </trkpt>
      <trkpt lat="48.38053" lon="2.37765">
        <ele>69.35</ele>
        <time>2024-05-05T08:16:08Z</time>
      </trkpt>
      <trkpt lat="48.38092" lon="2.37775">
        <ele>68.39</ele>
        <time>2024-05-05T08:16:19Z</time>
      </trkpt>
      <trkpt lat="48.38097" lon="2.37777">
        <ele>68.39</ele>
        <time>2024-05-05T08:16:20Z</time>
      </trkpt>
      <trkpt lat="48.38101" lon="2.37779">
        <ele>67.91</ele>
        <time>2024-05-05T08:16:21Z</time>
      </trkpt>
      <trkpt lat="48.38154" lon="2.37815">
        <ele>64.55</ele>
        <time>2024-05-05T08:16:31Z</time>
      </trkpt>
      <trkpt lat="48.38189" lon="2.37836">
        <ele>64.55</ele>
        <time>2024-05-05T08:16:39Z</time>
      </trkpt>
      <trkpt lat="48.38197" lon="2.37839">
        <ele>64.55</ele>
        <time>2024-05-05T08:16:41Z</time>
      </trkpt>
      <trkpt lat="48.38201" lon="2.3784">
        <ele>64.55</ele>
        <time>2024-05-05T08:16:42Z</time>
      </trkpt>
      <trkpt lat="48.38265" lon="2.37851">
        <ele>64.07</ele>
        <time>2024-05-05T08:16:59Z</time>
      </trkpt>
      <trkpt lat="48.38269" lon="2.3785">
        <ele>64.07</ele>
        <time>2024-05-05T08:17:02Z</time>
      </trkpt>
      <trkpt lat="48.3827" lon="2.37851">
        <ele>64.07</ele>
        <time>2024-05-05T08:17:16Z</time>
      </trkpt>
    </trkseg>
  </trk>
</gpx>